Observation data for Palo Duro Canyon State Park Rim on 07/18/2019      Previous  Date  Next       Current Mesonet Observations  Soil Data  Daily Summary Page  Observations in Plain Language
KPD1 180500Z 16011G17KT 29/15 A30 RMK A01 T02870152  RH  044%=      5-min Rain = 0
KPD1 180501Z 17015G22KT 29/15 A30 RMK A01 T02860152  RH  044%=      5-min Rain = 0
KPD1 180502Z 17014KT 29/15 A30 RMK A01 T02860153  RH  044%=      5-min Rain = 0
KPD1 180503Z 17012KT 29/15 A30 RMK A01 T02860154  RH  044%=      5-min Rain = 0
KPD1 180504Z 16009KT 29/15 A30 RMK A01 T02860153  RH  044%=      5-min Rain = 0
KPD1 180505Z 17011KT 29/15 A30 RMK A01 T02850153  RH  045%=      5-min Rain = 0
KPD1 180506Z 17009KT 28/15 A30 RMK A01 T02840153  RH  045%=      5-min Rain = 0
KPD1 180507Z 17009G15KT 28/15 A30 RMK A01 T02840154  RH  045%=      5-min Rain = 0
KPD1 180508Z 17008KT 28/16 A30 RMK A01 T02840155  RH  045%=      5-min Rain = 0
KPD1 180509Z 16011KT 28/15 A30 RMK A01 T02830154  RH  045%=      5-min Rain = 0
KPD1 180510Z 18011KT 28/16 A30 RMK A01 T02830155  RH  046%=      5-min Rain = 0
KPD1 180511Z 17012G17KT 28/16 A30 RMK A01 T02830156  RH  046%=      5-min Rain = 0
KPD1 180512Z 17013KT 28/16 A30 RMK A01 T02830156  RH  046%=      5-min Rain = 0
KPD1 180513Z 16013KT 28/16 A30 RMK A01 T02830156  RH  046%=      5-min Rain = 0
KPD1 180514Z 16013KT 28/16 A30 RMK A01 T02830157  RH  046%=      5-min Rain = 0
KPD1 180515Z 17009KT 28/16 A30 RMK A01 T02830157  RH  046%=      5-min Rain = 0
KPD1 180516Z 17013G18KT 28/16 A30 RMK A01 T02830158  RH  046%=      5-min Rain = 0
KPD1 180517Z 17012KT 28/16 A30 RMK A01 T02830158  RH  047%=      5-min Rain = 0
KPD1 180518Z 17008KT 28/16 A30 RMK A01 T02830158  RH  047%=      5-min Rain = 0
KPD1 180519Z 16011G16KT 28/16 A30 RMK A01 T02820158  RH  047%=      5-min Rain = 0
KPD1 180520Z 16012KT 28/16 A30 RMK A01 T02820158  RH  047%=      5-min Rain = 0
KPD1 180521Z 17013G18KT 28/16 A30 RMK A01 T02820158  RH  047%=      5-min Rain = 0
KPD1 180522Z 18013KT 28/16 A30 RMK A01 T02820158  RH  047%=      5-min Rain = 0
KPD1 180523Z 18015KT 28/16 A30 RMK A01 T02830158  RH  047%=      5-min Rain = 0
KPD1 180524Z 16010G17KT 28/16 A30 RMK A01 T02820159  RH  047%=      5-min Rain = 0
KPD1 180525Z 16009G15KT 28/16 A30 RMK A01 T02830159  RH  047%=      5-min Rain = 0
KPD1 180526Z 17009KT 28/16 A30 RMK A01 T02820159  RH  047%=      5-min Rain = 0
KPD1 180527Z 17010KT 28/16 A30 RMK A01 T02820159  RH  047%=      5-min Rain = 0
KPD1 180528Z 17011KT 28/16 A30 RMK A01 T02820160  RH  047%=      5-min Rain = 0
KPD1 180529Z 17011G16KT 28/16 A30 RMK A01 T02810160  RH  048%=      5-min Rain = 0
KPD1 180530Z 18009KT 28/16 A30 RMK A01 T02820160  RH  048%=      5-min Rain = 0
KPD1 180531Z 17006KT 28/16 A30 RMK A01 T02820160  RH  048%=      5-min Rain = 0
KPD1 180532Z 18008KT 28/16 A30 RMK A01 T02810160  RH  048%=      5-min Rain = 0
KPD1 180533Z 17009KT 28/16 A30 RMK A01 T02810160  RH  048%=      5-min Rain = 0
KPD1 180534Z 17013KT 28/16 A30 RMK A01 T02800160  RH  048%=      5-min Rain = 0
KPD1 180535Z 17011KT 28/16 A3001 RMK A01 T02800160  RH  048%=      5-min Rain = 0
KPD1 180536Z 17009KT 28/16 A3001 RMK A01 T02810160  RH  048%=      5-min Rain = 0
KPD1 180537Z 17011KT 28/16 A3001 RMK A01 T02810160  RH  048%=      5-min Rain = 0
KPD1 180538Z 16007KT 28/16 A3001 RMK A01 T02810160  RH  048%=      5-min Rain = 0
KPD1 180539Z 17010KT 28/16 A3001 RMK A01 T02810161  RH  048%=      5-min Rain = 0
KPD1 180540Z 16009KT 28/16 A3001 RMK A01 T02800160  RH  048%=      5-min Rain = 0
KPD1 180541Z 17008KT 28/16 A3001 RMK A01 T02800160  RH  048%=      5-min Rain = 0
KPD1 180542Z 17008KT 28/16 A3001 RMK A01 T02800160  RH  048%=      5-min Rain = 0
KPD1 180543Z 16008KT 28/16 A3001 RMK A01 T02790160  RH  048%=      5-min Rain = 0
KPD1 180544Z 17010KT 28/16 A3001 RMK A01 T02790160  RH  048%=      5-min Rain = 0
KPD1 180545Z 17009KT 28/16 A3001 RMK A01 T02790160  RH  048%=      5-min Rain = 0
KPD1 180546Z 17009KT 28/16 A3001 RMK A01 T02790160  RH  048%=      5-min Rain = 0
KPD1 180547Z 16008KT 28/16 A3001 RMK A01 T02790161  RH  048%=      5-min Rain = 0
KPD1 180548Z 17006KT 28/16 A3001 RMK A01 T02790160  RH  049%=      5-min Rain = 0
KPD1 180549Z 17007KT 28/16 A3001 RMK A01 T02790161  RH  049%=      5-min Rain = 0
KPD1 180550Z 17011KT 28/16 A3001 RMK A01 T02780160  RH  049%=      5-min Rain = 0
KPD1 180551Z 17009KT 28/16 A3001 RMK A01 T02770160  RH  049%=      5-min Rain = 0
KPD1 180552Z 17007KT 28/16 A3001 RMK A01 T02780160  RH  049%=      5-min Rain = 0
KPD1 180553Z 16008KT 28/16 A3001 RMK A01 T02780160  RH  049%=      5-min Rain = 0
KPD1 180554Z 17009KT 28/16 A3001 RMK A01 T02770160  RH  049%=      5-min Rain = 0
KPD1 180555Z 17009KT 28/16 A3001 RMK A01 T02770160  RH  049%=      5-min Rain = 0
KPD1 180556Z 16008KT 28/16 A30 RMK A01 T02770160  RH  049%=      5-min Rain = 0
KPD1 180557Z 17011KT 28/16 A30 RMK A01 T02770160  RH  049%=      5-min Rain = 0
KPD1 180558Z 17010KT 28/16 A30 RMK A01 T02770160  RH  049%=      5-min Rain = 0
KPD1 180559Z 17008KT 28/16 A30 RMK A01 T02760160  RH  049%=      5-min Rain = 0
KPD1 180600Z 16010KT 28/16 A30 RMK A01 T02770160  RH  049%=      5-min Rain = 0
KPD1 180601Z 17011KT 28/16 A30 RMK A01 T02770160  RH  049%=      5-min Rain = 0
KPD1 180602Z 16010KT 28/16 A30 RMK A01 T02760159  RH  049%=      5-min Rain = 0
KPD1 180603Z 16010KT 28/16 A30 RMK A01 T02760160  RH  049%=      5-min Rain = 0
KPD1 180604Z 17009KT 28/16 A30 RMK A01 T02760160  RH  049%=      5-min Rain = 0
KPD1 180605Z 16010KT 28/16 A30 RMK A01 T02770160  RH  049%=      5-min Rain = 0
KPD1 180606Z 17010KT 28/16 A30 RMK A01 T02760160  RH  049%=      5-min Rain = 0
KPD1 180607Z 17010KT 28/16 A30 RMK A01 T02760159  RH  049%=      5-min Rain = 0
KPD1 180608Z 16009KT 28/16 A30 RMK A01 T02750159  RH  049%=      5-min Rain = 0
KPD1 180609Z 16008KT 28/16 A30 RMK A01 T02760160  RH  049%=      5-min Rain = 0
KPD1 180610Z 16010KT 28/16 A30 RMK A01 T02760160  RH  049%=      5-min Rain = 0
KPD1 180611Z 16011KT 27/16 A30 RMK A01 T02740159  RH  049%=      5-min Rain = 0
KPD1 180612Z 17011KT 27/16 A30 RMK A01 T02740159  RH  049%=      5-min Rain = 0
KPD1 180613Z 16007KT 28/16 A30 RMK A01 T02750159  RH  049%=      5-min Rain = 0
KPD1 180614Z 17009KT 28/16 A30 RMK A01 T02750159  RH  049%=      5-min Rain = 0
KPD1 180615Z 17009KT 27/16 A30 RMK A01 T02740159  RH  049%=      5-min Rain = 0
KPD1 180616Z 16009KT 27/16 A30 RMK A01 T02730159  RH  050%=      5-min Rain = 0
KPD1 180617Z 16009KT 27/16 A30 RMK A01 T02740159  RH  050%=      5-min Rain = 0
KPD1 180618Z 17010KT 27/16 A30 RMK A01 T02730158  RH  050%=      5-min Rain = 0
KPD1 180619Z 17010KT 27/16 A30 RMK A01 T02740159  RH  050%=      5-min Rain = 0
KPD1 180620Z 16009KT 27/16 A30 RMK A01 T02730159  RH  050%=      5-min Rain = 0
KPD1 180621Z 17006KT 27/16 A30 RMK A01 T02730158  RH  050%=      5-min Rain = 0
KPD1 180622Z 16010KT 27/16 A30 RMK A01 T02730159  RH  050%=      5-min Rain = 0
KPD1 180623Z 17010KT 27/16 A30 RMK A01 T02730159  RH  050%=      5-min Rain = 0
KPD1 180624Z 17009KT 27/16 A30 RMK A01 T02730159  RH  050%=      5-min Rain = 0
KPD1 180625Z 16007KT 27/16 A30 RMK A01 T02730159  RH  050%=      5-min Rain = 0
KPD1 180626Z 16009KT 27/16 A30 RMK A01 T02720158  RH  050%=      5-min Rain = 0
KPD1 180627Z 17008KT 27/16 A30 RMK A01 T02710158  RH  050%=      5-min Rain = 0
KPD1 180628Z 16010KT 27/16 A30 RMK A01 T02720158  RH  050%=      5-min Rain = 0
KPD1 180629Z 17008KT 27/16 A30 RMK A01 T02720158  RH  050%=      5-min Rain = 0
KPD1 180630Z 17009KT 27/16 A30 RMK A01 T02720158  RH  050%=      5-min Rain = 0
KPD1 180631Z 16007KT 27/16 A30 RMK A01 T02720158  RH  050%=      5-min Rain = 0
KPD1 180632Z 16011KT 27/16 A30 RMK A01 T02710158  RH  050%=      5-min Rain = 0
KPD1 180633Z 16012KT 27/16 A30 RMK A01 T02710158  RH  050%=      5-min Rain = 0
KPD1 180634Z 16010KT 27/16 A30 RMK A01 T02710157  RH  050%=      5-min Rain = 0
KPD1 180635Z 17010KT 27/16 A30 RMK A01 T02710157  RH  050%=      5-min Rain = 0
KPD1 180636Z 17010KT 27/16 A2999 RMK A01 T02700157  RH  050%=      5-min Rain = 0
KPD1 180637Z 16008KT 27/16 A30 RMK A01 T02710157  RH  050%=      5-min Rain = 0
KPD1 180638Z 16009KT 27/16 A30 RMK A01 T02710158  RH  050%=      5-min Rain = 0
KPD1 180639Z 17007KT 27/16 A30 RMK A01 T02700157  RH  050%=      5-min Rain = 0
KPD1 180640Z 16010KT 27/16 A30 RMK A01 T02700156  RH  050%=      5-min Rain = 0
KPD1 180641Z 17009KT 27/16 A30 RMK A01 T02700156  RH  050%=      5-min Rain = 0
KPD1 180642Z 16010KT 27/16 A30 RMK A01 T02700157  RH  050%=      5-min Rain = 0
KPD1 180643Z 16009KT 27/16 A30 RMK A01 T02700156  RH  050%=      5-min Rain = 0
KPD1 180644Z 17008KT 27/16 A30 RMK A01 T02700156  RH  050%=      5-min Rain = 0
KPD1 180645Z 16009KT 27/16 A30 RMK A01 T02700156  RH  050%=      5-min Rain = 0
KPD1 180646Z 16011KT 27/16 A30 RMK A01 T02700156  RH  050%=      5-min Rain = 0
KPD1 180647Z 17010KT 27/16 A2999 RMK A01 T02690156  RH  050%=      5-min Rain = 0
KPD1 180648Z 16010KT 27/16 A2999 RMK A01 T02690155  RH  050%=      5-min Rain = 0
KPD1 180649Z 17009KT 27/16 A2999 RMK A01 T02700156  RH  050%=      5-min Rain = 0
KPD1 180650Z 17009KT 27/16 A2999 RMK A01 T02690155  RH  050%=      5-min Rain = 0
KPD1 180651Z 17009KT 27/16 A2999 RMK A01 T02700156  RH  050%=      5-min Rain = 0
KPD1 180652Z 16008KT 27/16 A2999 RMK A01 T02690156  RH  050%=      5-min Rain = 0
KPD1 180653Z 16009KT 27/16 A2999 RMK A01 T02690155  RH  050%=      5-min Rain = 0
KPD1 180654Z 16012KT 27/16 A2999 RMK A01 T02690156  RH  050%=      5-min Rain = 0
KPD1 180655Z 16011KT 27/16 A2999 RMK A01 T02690155  RH  050%=      5-min Rain = 0
KPD1 180656Z 16007KT 27/16 A2999 RMK A01 T02690156  RH  050%=      5-min Rain = 0
KPD1 180657Z 16009KT 27/16 A2999 RMK A01 T02680155  RH  050%=      5-min Rain = 0
KPD1 180658Z 16011KT 27/16 A2999 RMK A01 T02680155  RH  050%=      5-min Rain = 0
KPD1 180659Z 15010KT 27/15 A2999 RMK A01 T02670154  RH  050%=      5-min Rain = 0
KPD1 180700Z 17010KT 27/16 A2999 RMK A01 T02680155  RH  050%=      5-min Rain = 0
KPD1 180701Z 17010KT 27/15 A2999 RMK A01 T02670154  RH  050%=      5-min Rain = 0
KPD1 180702Z 16014KT 27/15 A2999 RMK A01 T02680154  RH  050%=      5-min Rain = 0
KPD1 180703Z 16009KT 27/15 A2999 RMK A01 T02680154  RH  050%=      5-min Rain = 0
KPD1 180704Z 17010KT 27/15 A2999 RMK A01 T02680154  RH  050%=      5-min Rain = 0
KPD1 180705Z 18010KT 27/15 A2999 RMK A01 T02670154  RH  050%=      5-min Rain = 0
KPD1 180706Z 16008KT 27/16 A2999 RMK A01 T02680155  RH  050%=      5-min Rain = 0
KPD1 180707Z 17010KT 27/15 A2999 RMK A01 T02670154  RH  050%=      5-min Rain = 0
KPD1 180708Z 17010KT 27/15 A2999 RMK A01 T02670154  RH  050%=      5-min Rain = 0
KPD1 180709Z 16013KT 27/15 A2998 RMK A01 T02670154  RH  050%=      5-min Rain = 0
KPD1 180710Z 16009KT 27/15 A2998 RMK A01 T02670154  RH  050%=      5-min Rain = 0
KPD1 180711Z 17010KT 27/15 A2998 RMK A01 T02670154  RH  050%=      5-min Rain = 0
KPD1 180712Z 16009KT 27/15 A2998 RMK A01 T02660153  RH  050%=      5-min Rain = 0
KPD1 180713Z 16007KT 27/15 A2998 RMK A01 T02670154  RH  050%=      5-min Rain = 0
KPD1 180714Z 17007KT 27/15 A2998 RMK A01 T02660153  RH  050%=      5-min Rain = 0
KPD1 180715Z 17008KT 27/15 A2998 RMK A01 T02660154  RH  050%=      5-min Rain = 0
KPD1 180716Z 17008KT 27/15 A2998 RMK A01 T02650154  RH  050%=      5-min Rain = 0
KPD1 180717Z 16008KT 27/15 A2998 RMK A01 T02650153  RH  050%=      5-min Rain = 0
KPD1 180718Z 17010KT 27/15 A2998 RMK A01 T02650154  RH  050%=      5-min Rain = 0
KPD1 180719Z 16010KT 27/15 A2998 RMK A01 T02650154  RH  050%=      5-min Rain = 0
KPD1 180720Z 16011KT 27/15 A2998 RMK A01 T02650153  RH  050%=      5-min Rain = 0
KPD1 180721Z 16009KT 27/15 A2998 RMK A01 T02650153  RH  050%=      5-min Rain = 0
KPD1 180722Z 16010KT 26/15 A2998 RMK A01 T02640153  RH  050%=      5-min Rain = 0
KPD1 180723Z 16010KT 26/15 A2998 RMK A01 T02640153  RH  050%=      5-min Rain = 0
KPD1 180724Z 17010KT 26/15 A2998 RMK A01 T02640153  RH  050%=      5-min Rain = 0
KPD1 180725Z 17010KT 26/15 A2998 RMK A01 T02640153  RH  051%=      5-min Rain = 0
KPD1 180726Z 17009KT 26/15 A2998 RMK A01 T02640153  RH  051%=      5-min Rain = 0
KPD1 180727Z 16008KT 26/15 A2998 RMK A01 T02640153  RH  051%=      5-min Rain = 0
KPD1 180728Z 16011KT 26/15 A2998 RMK A01 T02640153  RH  051%=      5-min Rain = 0
KPD1 180729Z 16011KT 26/15 A2998 RMK A01 T02640153  RH  051%=      5-min Rain = 0
KPD1 180730Z 16011KT 26/15 A2998 RMK A01 T02630153  RH  051%=      5-min Rain = 0
KPD1 180731Z 17009KT 26/15 A2998 RMK A01 T02630153  RH  051%=      5-min Rain = 0
KPD1 180732Z 17010KT 26/15 A2998 RMK A01 T02640153  RH  051%=      5-min Rain = 0
KPD1 180733Z 16008KT 26/15 A2998 RMK A01 T02630152  RH  051%=      5-min Rain = 0
KPD1 180734Z 17011G16KT 26/15 A2998 RMK A01 T02630153  RH  051%=      5-min Rain = 0
KPD1 180735Z 18011KT 26/15 A2998 RMK A01 T02630153  RH  051%=      5-min Rain = 0
KPD1 180736Z 17010KT 26/15 A2998 RMK A01 T02630153  RH  051%=      5-min Rain = 0
KPD1 180737Z 18010KT 26/15 A2998 RMK A01 T02620152  RH  051%=      5-min Rain = 0
KPD1 180738Z 17009KT 26/15 A2998 RMK A01 T02620153  RH  051%=      5-min Rain = 0
KPD1 180739Z 17010KT 26/15 A2998 RMK A01 T02620153  RH  051%=      5-min Rain = 0
KPD1 180740Z 17010KT 26/15 A2998 RMK A01 T02620152  RH  051%=      5-min Rain = 0
KPD1 180741Z 18008KT 26/15 A2998 RMK A01 T02620152  RH  051%=      5-min Rain = 0
KPD1 180742Z 17009KT 26/15 A2998 RMK A01 T02620153  RH  051%=      5-min Rain = 0
KPD1 180743Z 17010KT 26/15 A2998 RMK A01 T02620153  RH  051%=      5-min Rain = 0
KPD1 180744Z 17010KT 26/15 A2998 RMK A01 T02610152  RH  051%=      5-min Rain = 0
KPD1 180745Z 17009KT 26/15 A2998 RMK A01 T02610153  RH  051%=      5-min Rain = 0
KPD1 180746Z 16011G17KT 26/15 A2998 RMK A01 T02610153  RH  051%=      5-min Rain = 0
KPD1 180747Z 17013KT 26/15 A2998 RMK A01 T02610153  RH  051%=      5-min Rain = 0
KPD1 180748Z 18008KT 26/15 A2998 RMK A01 T02610153  RH  051%=      5-min Rain = 0
KPD1 180749Z 19009KT 26/15 A2998 RMK A01 T02610153  RH  051%=      5-min Rain = 0
KPD1 180750Z 17010KT 26/15 A2998 RMK A01 T02610153  RH  051%=      5-min Rain = 0
KPD1 180751Z 18010KT 26/15 A2998 RMK A01 T02600153  RH  052%=      5-min Rain = 0
KPD1 180752Z 17009KT 26/15 A2998 RMK A01 T02600153  RH  052%=      5-min Rain = 0
KPD1 180753Z 17010KT 26/15 A2998 RMK A01 T02600153  RH  052%=      5-min Rain = 0
KPD1 180754Z 19010KT 26/15 A2998 RMK A01 T02600153  RH  052%=      5-min Rain = 0
KPD1 180755Z 18011KT 26/15 A2998 RMK A01 T02600153  RH  052%=      5-min Rain = 0
KPD1 180756Z 17009KT 26/15 A2998 RMK A01 T02600153  RH  052%=      5-min Rain = 0
KPD1 180757Z 18010KT 26/15 A2998 RMK A01 T02600153  RH  052%=      5-min Rain = 0
KPD1 180758Z 18010KT 26/15 A2998 RMK A01 T02600154  RH  052%=      5-min Rain = 0
KPD1 180759Z 18012KT 26/15 A2998 RMK A01 T02600154  RH  052%=      5-min Rain = 0
KPD1 180800Z 18010KT 26/15 A2998 RMK A01 T02600154  RH  052%=      5-min Rain = 0
KPD1 180801Z 18008G13KT 26/15 A2998 RMK A01 T02600154  RH  052%=      5-min Rain = 0
KPD1 180802Z 18005KT 26/15 A2998 RMK A01 T02590153  RH  052%=      5-min Rain = 0
KPD1 180803Z 18008KT 26/15 A2998 RMK A01 T02590154  RH  052%=      5-min Rain = 0
KPD1 180804Z 18011KT 26/15 A2998 RMK A01 T02580153  RH  052%=      5-min Rain = 0
KPD1 180805Z 18010KT 26/15 A2998 RMK A01 T02580153  RH  052%=      5-min Rain = 0
KPD1 180806Z 18009KT 26/15 A2998 RMK A01 T02580153  RH  052%=      5-min Rain = 0
KPD1 180807Z 18009KT 26/15 A2998 RMK A01 T02580154  RH  052%=      5-min Rain = 0
KPD1 180808Z 19009G14KT 26/15 A2998 RMK A01 T02580153  RH  052%=      5-min Rain = 0
KPD1 180809Z 17010KT 26/15 A2998 RMK A01 T02580154  RH  052%=      5-min Rain = 0
KPD1 180810Z 16012KT 26/15 A2998 RMK A01 T02580153  RH  052%=      5-min Rain = 0
KPD1 180811Z 19012KT 26/15 A2998 RMK A01 T02580153  RH  052%=      5-min Rain = 0
KPD1 180812Z 18011KT 26/15 A2998 RMK A01 T02580153  RH  052%=      5-min Rain = 0
KPD1 180813Z 17012KT 26/15 A2998 RMK A01 T02580153  RH  052%=      5-min Rain = 0
KPD1 180814Z 19011KT 26/15 A2998 RMK A01 T02580154  RH  052%=      5-min Rain = 0
KPD1 180815Z 19011KT 26/15 A2998 RMK A01 T02570153  RH  053%=      5-min Rain = 0
KPD1 180816Z 17009G14KT 26/15 A2998 RMK A01 T02570153  RH  053%=      5-min Rain = 0
KPD1 180817Z 17010KT 26/15 A2998 RMK A01 T02570154  RH  053%=      5-min Rain = 0
KPD1 180818Z 18010KT 26/15 A2998 RMK A01 T02570154  RH  053%=      5-min Rain = 0
KPD1 180819Z 18008KT 26/15 A2998 RMK A01 T02570154  RH  053%=      5-min Rain = 0
KPD1 180820Z 17010KT 26/15 A2998 RMK A01 T02570153  RH  053%=      5-min Rain = 0
KPD1 180821Z 17010KT 26/15 A2998 RMK A01 T02560154  RH  053%=      5-min Rain = 0
KPD1 180822Z 17011G16KT 26/15 A2998 RMK A01 T02560154  RH  053%=      5-min Rain = 0
KPD1 180823Z 17009KT 26/15 A2998 RMK A01 T02560154  RH  053%=      5-min Rain = 0
KPD1 180824Z 17009KT 26/15 A2998 RMK A01 T02560154  RH  053%=      5-min Rain = 0
KPD1 180825Z 18008KT 26/16 A2998 RMK A01 T02570155  RH  053%=      5-min Rain = 0
KPD1 180826Z 18009KT 26/16 A2998 RMK A01 T02560155  RH  053%=      5-min Rain = 0
KPD1 180827Z 19012KT 26/15 A2998 RMK A01 T02560154  RH  054%=      5-min Rain = 0
KPD1 180828Z 18010KT 26/16 A2998 RMK A01 T02560155  RH  054%=      5-min Rain = 0
KPD1 180829Z 18012KT 26/16 A2999 RMK A01 T02560155  RH  054%=      5-min Rain = 0
KPD1 180830Z 18011KT 26/16 A2998 RMK A01 T02560155  RH  054%=      5-min Rain = 0
KPD1 180831Z 20010KT 26/16 A2998 RMK A01 T02570156  RH  054%=      5-min Rain = 0
KPD1 180832Z 20008KT 26/16 A2998 RMK A01 T02560155  RH  054%=      5-min Rain = 0
KPD1 180833Z 19008G13KT 26/16 A2998 RMK A01 T02560156  RH  054%=      5-min Rain = 0
KPD1 180834Z 19010G15KT 26/16 A2998 RMK A01 T02560156  RH  054%=      5-min Rain = 0
KPD1 180835Z 18011KT 26/16 A2998 RMK A01 T02550156  RH  054%=      5-min Rain = 0
KPD1 180836Z 18010KT 26/16 A2998 RMK A01 T02550156  RH  054%=      5-min Rain = 0
KPD1 180837Z 19010KT 26/16 A2998 RMK A01 T02550156  RH  054%=      5-min Rain = 0
KPD1 180838Z 18008KT 26/16 A2998 RMK A01 T02550156  RH  054%=      5-min Rain = 0
KPD1 180839Z 18008G14KT 26/16 A2998 RMK A01 T02550156  RH  054%=      5-min Rain = 0
KPD1 180840Z 19009KT 26/16 A2998 RMK A01 T02550156  RH  054%=      5-min Rain = 0
KPD1 180841Z 19010KT 26/16 A2998 RMK A01 T02550156  RH  054%=      5-min Rain = 0
KPD1 180842Z 18015G21KT 26/16 A2998 RMK A01 T02550156  RH  054%=      5-min Rain = 0
KPD1 180843Z 18010KT 26/16 A2998 RMK A01 T02550157  RH  055%=      5-min Rain = 0
KPD1 180844Z 18012G18KT 26/16 A2998 RMK A01 T02550157  RH  055%=      5-min Rain = 0
KPD1 180845Z 18013G19KT 26/16 A2998 RMK A01 T02550156  RH  054%=      5-min Rain = 0
KPD1 180846Z 18011G19KT 26/16 A2998 RMK A01 T02550157  RH  055%=      5-min Rain = 0
KPD1 180847Z 18011KT 26/16 A2998 RMK A01 T02550157  RH  054%=      5-min Rain = 0
KPD1 180848Z 19010KT 26/16 A2998 RMK A01 T02550157  RH  054%=      5-min Rain = 0
KPD1 180849Z 19009KT 26/16 A2998 RMK A01 T02550157  RH  055%=      5-min Rain = 0
KPD1 180850Z 18009KT 26/16 A2998 RMK A01 T02550158  RH  055%=      5-min Rain = 0
KPD1 180851Z 18011KT 25/16 A2998 RMK A01 T02540157  RH  055%=      5-min Rain = 0
KPD1 180852Z 18015KT 25/16 A2998 RMK A01 T02540157  RH  055%=      5-min Rain = 0
KPD1 180853Z 18011G16KT 25/16 A2998 RMK A01 T02540158  RH  055%=      5-min Rain = 0
KPD1 180854Z 19010G15KT 26/16 A2998 RMK A01 T02550158  RH  055%=      5-min Rain = 0
KPD1 180855Z 20010G17KT 26/16 A2998 RMK A01 T02550158  RH  055%=      5-min Rain = 0
KPD1 180856Z 19010KT 26/16 A2998 RMK A01 T02550158  RH  055%=      5-min Rain = 0
KPD1 180857Z 19013KT 26/16 A2998 RMK A01 T02550158  RH  055%=      5-min Rain = 0
KPD1 180858Z 20014KT 26/16 A2998 RMK A01 T02550159  RH  055%=      5-min Rain = 0
KPD1 180859Z 19010G15KT 25/16 A2998 RMK A01 T02540158  RH  055%=      5-min Rain = 0
KPD1 180900Z 19010G16KT 25/16 A2998 RMK A01 T02540158  RH  055%=      5-min Rain = 0
KPD1 180901Z 19009G19KT 25/16 A2998 RMK A01 T02540158  RH  055%=      5-min Rain = 0
KPD1 180902Z 20014G19KT 25/16 A2998 RMK A01 T02540159  RH  056%=      5-min Rain = 0
KPD1 180903Z 20012G17KT 25/16 A2998 RMK A01 T02540159  RH  056%=      5-min Rain = 0
KPD1 180904Z 19013KT 25/16 A2998 RMK A01 T02540159  RH  056%=      5-min Rain = 0
KPD1 180905Z 19015G20KT 25/16 A2998 RMK A01 T02540159  RH  056%=      5-min Rain = 0
KPD1 180906Z 19015KT 25/16 A2998 RMK A01 T02530158  RH  056%=      5-min Rain = 0
KPD1 180907Z 18013G18KT 25/16 A2998 RMK A01 T02540159  RH  056%=      5-min Rain = 0
KPD1 180908Z 18013KT 25/16 A2998 RMK A01 T02540159  RH  056%=      5-min Rain = 0
KPD1 180909Z 18011KT 25/16 A2998 RMK A01 T02540159  RH  055%=      5-min Rain = 0
KPD1 180910Z 19010KT 25/16 A2998 RMK A01 T02540159  RH  056%=      5-min Rain = 0
KPD1 180911Z 19011G16KT 25/16 A2998 RMK A01 T02540159  RH  056%=      5-min Rain = 0
KPD1 180912Z 19008G14KT 25/16 A2998 RMK A01 T02530159  RH  056%=      5-min Rain = 0
KPD1 180913Z 20011KT 25/16 A2998 RMK A01 T02530159  RH  056%=      5-min Rain = 0
KPD1 180914Z 20010G16KT 25/16 A2998 RMK A01 T02530160  RH  056%=      5-min Rain = 0
KPD1 180915Z 21012KT 25/16 A2998 RMK A01 T02520159  RH  056%=      5-min Rain = 0
KPD1 180916Z 20011KT 25/16 A2998 RMK A01 T02520159  RH  056%=      5-min Rain = 0
KPD1 180917Z 19008KT 25/16 A2998 RMK A01 T02520160  RH  056%=      5-min Rain = 0
KPD1 180918Z 19013G19KT 25/16 A2998 RMK A01 T02520159  RH  056%=      5-min Rain = 0
KPD1 180919Z 20011G17KT 25/16 A2998 RMK A01 T02510159  RH  056%=      5-min Rain = 0
KPD1 180920Z 19013KT 25/16 A2998 RMK A01 T02510159  RH  057%=      5-min Rain = 0
KPD1 180921Z 19012G17KT 25/16 A2998 RMK A01 T02520159  RH  057%=      5-min Rain = 0
KPD1 180922Z 20012KT 25/16 A2998 RMK A01 T02520159  RH  056%=      5-min Rain = 0
KPD1 180923Z 19011KT 25/16 A2998 RMK A01 T02510159  RH  056%=      5-min Rain = 0
KPD1 180924Z 19011G18KT 25/16 A2998 RMK A01 T02510159  RH  057%=      5-min Rain = 0
KPD1 180925Z 19012G18KT 25/16 A2999 RMK A01 T02510159  RH  057%=      5-min Rain = 0
KPD1 180926Z 19010KT 25/16 A2999 RMK A01 T02520160  RH  057%=      5-min Rain = 0
KPD1 180927Z 20010KT 25/16 A2999 RMK A01 T02520160  RH  057%=      5-min Rain = 0
KPD1 180928Z 19010KT 25/16 A2999 RMK A01 T02520160  RH  057%=      5-min Rain = 0
KPD1 180929Z 21010KT 25/16 A2999 RMK A01 T02510159  RH  057%=      5-min Rain = 0
KPD1 180930Z 19010KT 25/16 A2999 RMK A01 T02510160  RH  057%=      5-min Rain = 0
KPD1 180931Z 19009KT 25/16 A2999 RMK A01 T02510160  RH  057%=      5-min Rain = 0
KPD1 180932Z 21008KT 25/16 A2999 RMK A01 T02510160  RH  057%=      5-min Rain = 0
KPD1 180933Z 19010KT 25/16 A2999 RMK A01 T02500159  RH  057%=      5-min Rain = 0
KPD1 180934Z 20007KT 25/16 A2999 RMK A01 T02490159  RH  057%=      5-min Rain = 0
KPD1 180935Z 20007G12KT 25/16 A2999 RMK A01 T02490160  RH  057%=      5-min Rain = 0
KPD1 180936Z 21010G16KT 25/16 A2999 RMK A01 T02490160  RH  058%=      5-min Rain = 0
KPD1 180937Z 20009KT 25/16 A2999 RMK A01 T02490159  RH  058%=      5-min Rain = 0
KPD1 180938Z 20009KT 25/16 A2999 RMK A01 T02490160  RH  058%=      5-min Rain = 0
KPD1 180939Z 20009G14KT 25/16 A2999 RMK A01 T02480159  RH  058%=      5-min Rain = 0
KPD1 180940Z 19011KT 25/16 A2998 RMK A01 T02490160  RH  058%=      5-min Rain = 0
KPD1 180941Z 19011KT 25/16 A2998 RMK A01 T02480159  RH  058%=      5-min Rain = 0
KPD1 180942Z 19015G20KT 25/16 A2998 RMK A01 T02480159  RH  058%=      5-min Rain = 0
KPD1 180943Z 19012KT 25/16 A2998 RMK A01 T02490160  RH  058%=      5-min Rain = 0
KPD1 180944Z 18011G19KT 25/16 A2998 RMK A01 T02490160  RH  058%=      5-min Rain = 0
KPD1 180945Z 18013G18KT 25/16 A2998 RMK A01 T02490159  RH  057%=      5-min Rain = 0
KPD1 180946Z 19014G20KT 25/16 A2998 RMK A01 T02480159  RH  058%=      5-min Rain = 0
KPD1 180947Z 19012G18KT 25/16 A2998 RMK A01 T02480160  RH  058%=      5-min Rain = 0
KPD1 180948Z 19014G19KT 25/16 A2998 RMK A01 T02490160  RH  058%=      5-min Rain = 0
KPD1 180949Z 19014KT 25/16 A2998 RMK A01 T02480160  RH  058%=      5-min Rain = 0
KPD1 180950Z 19013KT 25/16 A2998 RMK A01 T02480159  RH  058%=      5-min Rain = 0
KPD1 180951Z 18012G17KT 25/16 A2998 RMK A01 T02480160  RH  058%=      5-min Rain = 0
KPD1 180952Z 19013KT 25/16 A2998 RMK A01 T02470160  RH  058%=      5-min Rain = 0
KPD1 180953Z 18009KT 25/16 A2998 RMK A01 T02470159  RH  058%=      5-min Rain = 0
KPD1 180954Z 19016KT 25/16 A2998 RMK A01 T02460159  RH  058%=      5-min Rain = 0
KPD1 180955Z 19016G24KT 25/16 A2999 RMK A01 T02460160  RH  058%=      5-min Rain = 0
KPD1 180956Z 19014G21KT 25/16 A2999 RMK A01 T02470160  RH  058%=      5-min Rain = 0
KPD1 180957Z 19011G17KT 25/16 A2999 RMK A01 T02470160  RH  058%=      5-min Rain = 0
KPD1 180958Z 19009KT 25/16 A2999 RMK A01 T02470159  RH  058%=      5-min Rain = 0
KPD1 180959Z 19013KT 25/16 A2998 RMK A01 T02470160  RH  058%=      5-min Rain = 0
KPD1 181000Z 19014G19KT 25/16 A2998 RMK A01 T02470160  RH  058%=      5-min Rain = 0
KPD1 181001Z 19012G20KT 25/16 A2998 RMK A01 T02470160  RH  058%=      5-min Rain = 0
KPD1 181002Z 18013G22KT 25/16 A2998 RMK A01 T02460160  RH  058%=      5-min Rain = 0
KPD1 181003Z 18009KT 25/16 A2998 RMK A01 T02460159  RH  058%=      5-min Rain = 0
KPD1 181004Z 18008KT 25/16 A2998 RMK A01 T02460160  RH  059%=      5-min Rain = 0
KPD1 181005Z 18010KT 25/16 A2998 RMK A01 T02450159  RH  059%=      5-min Rain = 0
KPD1 181006Z 18009KT 25/16 A2998 RMK A01 T02450160  RH  059%=      5-min Rain = 0
KPD1 181007Z 18010KT 25/16 A2998 RMK A01 T02450160  RH  059%=      5-min Rain = 0
KPD1 181008Z 18009KT 24/16 A2999 RMK A01 T02440160  RH  059%=      5-min Rain = 0
KPD1 181009Z 18011KT 25/16 A2998 RMK A01 T02450160  RH  059%=      5-min Rain = 0
KPD1 181010Z 18011KT 24/16 A2998 RMK A01 T02440160  RH  059%=      5-min Rain = 0
KPD1 181011Z 17010KT 24/16 A2999 RMK A01 T02440159  RH  059%=      5-min Rain = 0
KPD1 181012Z 18010KT 24/16 A2999 RMK A01 T02440159  RH  059%=      5-min Rain = 0
KPD1 181013Z 18008KT 24/16 A2999 RMK A01 T02440159  RH  059%=      5-min Rain = 0
KPD1 181014Z 18010KT 24/16 A2999 RMK A01 T02440159  RH  059%=      5-min Rain = 0
KPD1 181015Z 19010KT 24/16 A2999 RMK A01 T02440159  RH  059%=      5-min Rain = 0
KPD1 181016Z 18012KT 24/16 A2999 RMK A01 T02440160  RH  059%=      5-min Rain = 0
KPD1 181017Z 18008KT 24/16 A2999 RMK A01 T02440160  RH  059%=      5-min Rain = 0
KPD1 181018Z 19010KT 24/16 A2999 RMK A01 T02430159  RH  059%=      5-min Rain = 0
KPD1 181019Z 19011G17KT 24/16 A2999 RMK A01 T02430159  RH  059%=      5-min Rain = 0
KPD1 181020Z 18009KT 24/16 A2999 RMK A01 T02430160  RH  060%=      5-min Rain = 0
KPD1 181021Z 19013G18KT 24/16 A2999 RMK A01 T02430160  RH  060%=      5-min Rain = 0
KPD1 181022Z 19013G18KT 24/16 A2999 RMK A01 T02420159  RH  060%=      5-min Rain = 0
KPD1 181023Z 19009KT 24/16 A2999 RMK A01 T02420159  RH  060%=      5-min Rain = 0
KPD1 181024Z 18010KT 24/16 A2999 RMK A01 T02420159  RH  060%=      5-min Rain = 0
KPD1 181025Z 18009KT 24/16 A2999 RMK A01 T02430160  RH  060%=      5-min Rain = 0
KPD1 181026Z 17012KT 24/16 A2999 RMK A01 T02420160  RH  060%=      5-min Rain = 0
KPD1 181027Z 18008KT 24/16 A2999 RMK A01 T02420159  RH  060%=      5-min Rain = 0
KPD1 181028Z 19011G16KT 24/16 A2999 RMK A01 T02420160  RH  060%=      5-min Rain = 0
KPD1 181029Z 19009KT 24/16 A2999 RMK A01 T02410159  RH  060%=      5-min Rain = 0
KPD1 181030Z 20007KT 24/16 A2999 RMK A01 T02410159  RH  060%=      5-min Rain = 0
KPD1 181031Z 18010KT 24/16 A2999 RMK A01 T02400159  RH  060%=      5-min Rain = 0
KPD1 181032Z 18009KT 24/16 A2999 RMK A01 T02410160  RH  060%=      5-min Rain = 0
KPD1 181033Z 19010G18KT 24/16 A2999 RMK A01 T02410159  RH  060%=      5-min Rain = 0
KPD1 181034Z 18008G17KT 24/16 A2999 RMK A01 T02410160  RH  060%=      5-min Rain = 0
KPD1 181035Z 19008G13KT 24/16 A2999 RMK A01 T02410160  RH  061%=      5-min Rain = 0
KPD1 181036Z 17009KT 24/16 A2999 RMK A01 T02400160  RH  061%=      5-min Rain = 0
KPD1 181037Z 19007G12KT 24/16 A2999 RMK A01 T02410160  RH  061%=      5-min Rain = 0
KPD1 181038Z 19012KT 24/16 A2999 RMK A01 T02400160  RH  061%=      5-min Rain = 0
KPD1 181039Z 18010KT 24/16 A2999 RMK A01 T02390159  RH  061%=      5-min Rain = 0
KPD1 181040Z 20009KT 24/16 A2999 RMK A01 T02390160  RH  061%=      5-min Rain = 0
KPD1 181041Z 19011KT 24/16 A2999 RMK A01 T02390160  RH  061%=      5-min Rain = 0
KPD1 181042Z 18008KT 24/16 A2999 RMK A01 T02400160  RH  061%=      5-min Rain = 0
KPD1 181043Z 18009KT 24/16 A2999 RMK A01 T02380159  RH  061%=      5-min Rain = 0
KPD1 181044Z 18009KT 24/16 A2999 RMK A01 T02380160  RH  061%=      5-min Rain = 0
KPD1 181045Z 18008G14KT 24/16 A2999 RMK A01 T02380160  RH  061%=      5-min Rain = 0
KPD1 181046Z 19011KT 24/16 A2999 RMK A01 T02380160  RH  061%=      5-min Rain = 0
KPD1 181047Z 19009KT 24/16 A2999 RMK A01 T02380160  RH  061%=      5-min Rain = 0
KPD1 181048Z 18010G17KT 24/16 A2999 RMK A01 T02380160  RH  062%=      5-min Rain = 0
KPD1 181049Z 19010KT 24/16 A2999 RMK A01 T02380160  RH  062%=      5-min Rain = 0
KPD1 181050Z 18008KT 24/16 A2999 RMK A01 T02380160  RH  062%=      5-min Rain = 0
KPD1 181051Z 17010KT 24/16 A2999 RMK A01 T02380160  RH  062%=      5-min Rain = 0
KPD1 181052Z 18010KT 24/16 A2999 RMK A01 T02380160  RH  062%=      5-min Rain = 0
KPD1 181053Z 18011KT 24/16 A2999 RMK A01 T02380160  RH  062%=      5-min Rain = 0
KPD1 181054Z 18008KT 24/16 A2999 RMK A01 T02380160  RH  062%=      5-min Rain = 0
KPD1 181055Z 19009KT 24/16 A2999 RMK A01 T02380160  RH  062%=      5-min Rain = 0
KPD1 181056Z 18007KT 24/16 A2999 RMK A01 T02380160  RH  062%=      5-min Rain = 0
KPD1 181057Z 18012G17KT 24/16 A2999 RMK A01 T02380161  RH  062%=      5-min Rain = 0
KPD1 181058Z 18011KT 24/16 A2999 RMK A01 T02380161  RH  062%=      5-min Rain = 0
KPD1 181059Z 18008KT 24/16 A2999 RMK A01 T02370160  RH  062%=      5-min Rain = 0
KPD1 181100Z 18010KT 24/16 A2999 RMK A01 T02380160  RH  062%=      5-min Rain = 0
KPD1 181101Z 18012KT 24/16 A2999 RMK A01 T02380160  RH  062%=      5-min Rain = 0
KPD1 181102Z 17010KT 24/16 A2999 RMK A01 T02380160  RH  062%=      5-min Rain = 0
KPD1 181103Z 18007KT 24/16 A2999 RMK A01 T02380161  RH  062%=      5-min Rain = 0
KPD1 181104Z 18008G15KT 24/16 A2999 RMK A01 T02370160  RH  062%=      5-min Rain = 0
KPD1 181105Z 18012KT 24/16 A2999 RMK A01 T02370160  RH  062%=      5-min Rain = 0
KPD1 181106Z 19010KT 24/16 A2999 RMK A01 T02370160  RH  062%=      5-min Rain = 0
KPD1 181107Z 18009KT 24/16 A2999 RMK A01 T02370160  RH  062%=      5-min Rain = 0
KPD1 181108Z 19010KT 24/16 A2999 RMK A01 T02370161  RH  062%=      5-min Rain = 0
KPD1 181109Z 19013G19KT 24/16 A2999 RMK A01 T02370161  RH  062%=      5-min Rain = 0
KPD1 181110Z 18014G21KT 24/16 A2999 RMK A01 T02370161  RH  062%=      5-min Rain = 0
KPD1 181111Z 17011KT 24/16 A2999 RMK A01 T02380161  RH  062%=      5-min Rain = 0
KPD1 181112Z 17010G17KT 24/16 A2999 RMK A01 T02380161  RH  062%=      5-min Rain = 0
KPD1 181113Z 18006KT 24/16 A2999 RMK A01 T02390161  RH  062%=      5-min Rain = 0
KPD1 181114Z 18014KT 24/16 A2999 RMK A01 T02390161  RH  062%=      5-min Rain = 0
KPD1 181115Z 18011G16KT 24/16 A2999 RMK A01 T02390161  RH  062%=      5-min Rain = 0
KPD1 181116Z 17010G15KT 24/16 A2999 RMK A01 T02390162  RH  062%=      5-min Rain = 0
KPD1 181117Z 17010KT 24/16 A2999 RMK A01 T02380161  RH  062%=      5-min Rain = 0
KPD1 181118Z 19010G17KT 24/16 A2999 RMK A01 T02380161  RH  062%=      5-min Rain = 0
KPD1 181119Z 19014KT 24/16 A2999 RMK A01 T02380161  RH  062%=      5-min Rain = 0
KPD1 181120Z 17012G17KT 24/16 A2999 RMK A01 T02380161  RH  062%=      5-min Rain = 0
KPD1 181121Z 18014G19KT 24/16 A2999 RMK A01 T02390161  RH  062%=      5-min Rain = 0
KPD1 181122Z 18010KT 24/16 A2999 RMK A01 T02390161  RH  062%=      5-min Rain = 0
KPD1 181123Z 18011KT 24/16 A2999 RMK A01 T02400162  RH  062%=      5-min Rain = 0
KPD1 181124Z 18011G16KT 24/16 A2999 RMK A01 T02400162  RH  062%=      5-min Rain = 0
KPD1 181125Z 18010G15KT 24/16 A2999 RMK A01 T02390162  RH  062%=      5-min Rain = 0
KPD1 181126Z 18013G23KT 24/16 A2999 RMK A01 T02390162  RH  062%=      5-min Rain = 0
KPD1 181127Z 18011G16KT 24/16 A2999 RMK A01 T02380161  RH  062%=      5-min Rain = 0
KPD1 181128Z 18013KT 24/16 A2999 RMK A01 T02380161  RH  062%=      5-min Rain = 0
KPD1 181129Z 17016KT 24/16 A2999 RMK A01 T02380161  RH  062%=      5-min Rain = 0
KPD1 181130Z 18012KT 24/16 A2999 RMK A01 T02390162  RH  062%=      5-min Rain = 0
KPD1 181131Z 18016G24KT 24/16 A2999 RMK A01 T02390161  RH  062%=      5-min Rain = 0
KPD1 181132Z 17017KT 24/16 A2999 RMK A01 T02400161  RH  062%=      5-min Rain = 0
KPD1 181133Z 17016G22KT 24/16 A2999 RMK A01 T02400162  RH  061%=      5-min Rain = 0
KPD1 181134Z 19012KT 24/16 A2999 RMK A01 T02410162  RH  061%=      5-min Rain = 0
KPD1 181135Z 19017G26KT 24/16 A2999 RMK A01 T02400162  RH  061%=      5-min Rain = 0
KPD1 181136Z 17018G26KT 24/16 A2999 RMK A01 T02400162  RH  062%=      5-min Rain = 0
KPD1 181137Z 18010KT 24/16 A2999 RMK A01 T02400162  RH  062%=      5-min Rain = 0
KPD1 181138Z 18009G14KT 24/16 A2999 RMK A01 T02400162  RH  062%=      5-min Rain = 0
KPD1 181139Z 19014G19KT 24/16 A2999 RMK A01 T02400162  RH  062%=      5-min Rain = 0
KPD1 181140Z 18011KT 24/16 A2999 RMK A01 T02390162  RH  062%=      5-min Rain = 0
KPD1 181141Z 18009KT 24/16 A2999 RMK A01 T02380162  RH  062%=      5-min Rain = 0
KPD1 181142Z 18011KT 24/16 A2999 RMK A01 T02370161  RH  062%=      5-min Rain = 0
KPD1 181143Z 18016G21KT 24/16 A2999 RMK A01 T02380162  RH  063%=      5-min Rain = 0
KPD1 181144Z 18012KT 24/16 A2999 RMK A01 T02380162  RH  062%=      5-min Rain = 0
KPD1 181145Z 17010G15KT 24/16 A2999 RMK A01 T02390163  RH  062%=      5-min Rain = 0
KPD1 181146Z 18013KT 24/16 A2999 RMK A01 T02390162  RH  062%=      5-min Rain = 0
KPD1 181147Z 17011KT 24/16 A2999 RMK A01 T02380162  RH  062%=      5-min Rain = 0
KPD1 181148Z 18010KT 24/16 A2999 RMK A01 T02380162  RH  062%=      5-min Rain = 0
KPD1 181149Z 18008KT 24/16 A2999 RMK A01 T02380162  RH  062%=      5-min Rain = 0
KPD1 181150Z 18011G16KT 24/16 A2999 RMK A01 T02380162  RH  062%=      5-min Rain = 0
KPD1 181151Z 18011G16KT 24/16 A2999 RMK A01 T02380162  RH  063%=      5-min Rain = 0
KPD1 181152Z 17012G17KT 24/16 A2999 RMK A01 T02380162  RH  063%=      5-min Rain = 0
KPD1 181153Z 19011G17KT 24/16 A2999 RMK A01 T02380163  RH  063%=      5-min Rain = 0
KPD1 181154Z 19012G18KT 24/16 A2999 RMK A01 T02380162  RH  063%=      5-min Rain = 0
KPD1 181155Z 18012KT 24/16 A2999 RMK A01 T02380162  RH  062%=      5-min Rain = 0
KPD1 181156Z 19009G14KT 24/16 A2999 RMK A01 T02380162  RH  062%=      5-min Rain = 0
KPD1 181157Z 19011G17KT 24/16 A2999 RMK A01 T02380162  RH  062%=      5-min Rain = 0
KPD1 181158Z 17010KT 24/16 A2999 RMK A01 T02380162  RH  062%=      5-min Rain = 0
KPD1 181159Z 18009G14KT 24/16 A2999 RMK A01 T02380162  RH  062%=      5-min Rain = 0
KPD1 181200Z 17009KT 24/16 A2999 RMK A01 T02390163  RH  062%=      5-min Rain = 0
KPD1 181201Z 19009KT 24/16 A2999 RMK A01 T02380163  RH  062%=      5-min Rain = 0
KPD1 181202Z 17009KT 24/16 A2999 RMK A01 T02390163  RH  063%=      5-min Rain = 0
KPD1 181203Z 18011KT 24/16 A2999 RMK A01 T02380163  RH  063%=      5-min Rain = 0
KPD1 181204Z 18009KT 24/16 A2999 RMK A01 T02380163  RH  063%=      5-min Rain = 0
KPD1 181205Z 19009KT 24/16 A2999 RMK A01 T02390162  RH  062%=      5-min Rain = 0
KPD1 181206Z 18012G17KT 24/16 A2999 RMK A01 T02390162  RH  062%=      5-min Rain = 0
KPD1 181207Z 17013KT 24/16 A2999 RMK A01 T02390162  RH  062%=      5-min Rain = 0
KPD1 181208Z 17011KT 24/16 A2999 RMK A01 T02390162  RH  062%=      5-min Rain = 0
KPD1 181209Z 16012KT 24/16 A2999 RMK A01 T02390162  RH  062%=      5-min Rain = 0
KPD1 181210Z 17009KT 24/16 A2999 RMK A01 T02400163  RH  062%=      5-min Rain = 0
KPD1 181211Z 16010KT 24/16 A2999 RMK A01 T02390162  RH  062%=      5-min Rain = 0
KPD1 181212Z 18007G12KT 24/16 A2999 RMK A01 T02400162  RH  062%=      5-min Rain = 0
KPD1 181213Z 17009G15KT 24/16 A2999 RMK A01 T02400163  RH  062%=      5-min Rain = 0
KPD1 181214Z 18007KT 24/16 A2999 RMK A01 T02400164  RH  062%=      5-min Rain = 0
KPD1 181215Z 18011KT 24/16 A2999 RMK A01 T02390163  RH  062%=      5-min Rain = 0
KPD1 181216Z 17008KT 24/16 A2999 RMK A01 T02400163  RH  062%=      5-min Rain = 0
KPD1 181217Z 16009KT 24/16 A2999 RMK A01 T02400163  RH  062%=      5-min Rain = 0
KPD1 181218Z 17011KT 24/16 A2999 RMK A01 T02390163  RH  062%=      5-min Rain = 0
KPD1 181219Z 16011G16KT 24/16 A2999 RMK A01 T02390163  RH  062%=      5-min Rain = 0
KPD1 181220Z 17009KT 24/16 A2999 RMK A01 T02390162  RH  062%=      5-min Rain = 0
KPD1 181221Z 17009KT 24/16 A2999 RMK A01 T02400163  RH  062%=      5-min Rain = 0
KPD1 181222Z 16008G14KT 24/16 A2999 RMK A01 T02390162  RH  062%=      5-min Rain = 0
KPD1 181223Z 17010KT 24/16 A30 RMK A01 T02400163  RH  062%=      5-min Rain = 0
KPD1 181224Z 16010KT 24/16 A2999 RMK A01 T02400163  RH  062%=      5-min Rain = 0
KPD1 181225Z 17010KT 24/16 A2999 RMK A01 T02400163  RH  062%=      5-min Rain = 0
KPD1 181226Z 17012KT 24/16 A2999 RMK A01 T02400162  RH  062%=      5-min Rain = 0
KPD1 181227Z 18011KT 24/16 A2999 RMK A01 T02400162  RH  062%=      5-min Rain = 0
KPD1 181228Z 17012G18KT 24/16 A2999 RMK A01 T02410162  RH  061%=      5-min Rain = 0
KPD1 181229Z 18016G21KT 24/16 A2999 RMK A01 T02410162  RH  061%=      5-min Rain = 0
KPD1 181230Z 17011KT 24/16 A2999 RMK A01 T02420161  RH  061%=      5-min Rain = 0
KPD1 181231Z 15007KT 24/16 A2999 RMK A01 T02430162  RH  061%=      5-min Rain = 0
KPD1 181232Z 17006KT 24/16 A2999 RMK A01 T02420163  RH  061%=      5-min Rain = 0
KPD1 181233Z 15007G12KT 24/16 A2999 RMK A01 T02420164  RH  061%=      5-min Rain = 0
KPD1 181234Z 16009KT 24/16 A2999 RMK A01 T02420163  RH  061%=      5-min Rain = 0
KPD1 181235Z 16008KT 24/16 A2999 RMK A01 T02420163  RH  061%=      5-min Rain = 0
KPD1 181236Z 16008KT 24/16 A2999 RMK A01 T02430164  RH  061%=      5-min Rain = 0
KPD1 181237Z 17009KT 24/16 A2999 RMK A01 T02420163  RH  061%=      5-min Rain = 0
KPD1 181238Z 17008KT 24/16 A2999 RMK A01 T02420163  RH  061%=      5-min Rain = 0
KPD1 181239Z 16006KT 24/16 A2999 RMK A01 T02420163  RH  061%=      5-min Rain = 0
KPD1 181240Z 15009KT 24/16 A2999 RMK A01 T02420163  RH  061%=      5-min Rain = 0
KPD1 181241Z 16008KT 24/16 A2999 RMK A01 T02420162  RH  061%=      5-min Rain = 0
KPD1 181242Z 16007KT 24/16 A2999 RMK A01 T02430164  RH  061%=      5-min Rain = 0
KPD1 181243Z 16006G11KT 24/16 A2999 RMK A01 T02420163  RH  061%=      5-min Rain = 0
KPD1 181244Z 16009KT 24/16 A2999 RMK A01 T02430163  RH  061%=      5-min Rain = 0
KPD1 181245Z 16008KT 24/16 A2999 RMK A01 T02430163  RH  061%=      5-min Rain = 0
KPD1 181246Z 15009KT 24/16 A2999 RMK A01 T02440163  RH  061%=      5-min Rain = 0
KPD1 181247Z 16009KT 24/16 A2999 RMK A01 T02440163  RH  060%=      5-min Rain = 0
KPD1 181248Z 17007KT 24/16 A2999 RMK A01 T02440163  RH  060%=      5-min Rain = 0
KPD1 181249Z 15009KT 24/16 A2999 RMK A01 T02440163  RH  060%=      5-min Rain = 0
KPD1 181250Z 15008KT 24/16 A2999 RMK A01 T02440163  RH  060%=      5-min Rain = 0
KPD1 181251Z 16007KT 25/16 A2999 RMK A01 T02450163  RH  060%=      5-min Rain = 0
KPD1 181252Z 15008KT 24/16 A2999 RMK A01 T02440163  RH  061%=      5-min Rain = 0
KPD1 181253Z 16008KT 24/16 A2999 RMK A01 T02440163  RH  061%=      5-min Rain = 0
KPD1 181254Z 17010KT 24/16 A2999 RMK A01 T02440163  RH  060%=      5-min Rain = 0
KPD1 181255Z 17009KT 24/16 A2999 RMK A01 T02440162  RH  060%=      5-min Rain = 0
KPD1 181256Z 15007KT 25/16 A2999 RMK A01 T02450161  RH  060%=      5-min Rain = 0
KPD1 181257Z 16009KT 25/16 A2999 RMK A01 T02470163  RH  060%=      5-min Rain = 0
KPD1 181258Z 17008KT 25/16 A2999 RMK A01 T02470162  RH  059%=      5-min Rain = 0
KPD1 181259Z 18010KT 25/16 A2999 RMK A01 T02480163  RH  059%=      5-min Rain = 0
KPD1 181300Z 18008KT 25/16 A2999 RMK A01 T02480163  RH  059%=      5-min Rain = 0
KPD1 181301Z 16011KT 25/16 A2999 RMK A01 T02480163  RH  059%=      5-min Rain = 0
KPD1 181302Z 18011G16KT 25/16 A2999 RMK A01 T02480163  RH  059%=      5-min Rain = 0
KPD1 181303Z 17011KT 25/16 A2999 RMK A01 T02480163  RH  059%=      5-min Rain = 0
KPD1 181304Z 19015KT 25/16 A2999 RMK A01 T02480163  RH  059%=      5-min Rain = 0
KPD1 181305Z 18011KT 25/16 A2999 RMK A01 T02470162  RH  059%=      5-min Rain = 0
KPD1 181306Z 17008KT 25/16 A2999 RMK A01 T02470163  RH  059%=      5-min Rain = 0
KPD1 181307Z 18008KT 25/16 A2999 RMK A01 T02470164  RH  060%=      5-min Rain = 0
KPD1 181308Z 18011KT 25/16 A2999 RMK A01 T02460163  RH  060%=      5-min Rain = 0
KPD1 181309Z 18009KT 25/16 A2999 RMK A01 T02460163  RH  060%=      5-min Rain = 0
KPD1 181310Z 17010KT 25/16 A2999 RMK A01 T02460163  RH  060%=      5-min Rain = 0
KPD1 181311Z 17011KT 25/16 A2999 RMK A01 T02450163  RH  060%=      5-min Rain = 0
KPD1 181312Z 17009KT 25/16 A2999 RMK A01 T02450163  RH  060%=      5-min Rain = 0
KPD1 181313Z 17011KT 25/16 A2999 RMK A01 T02450163  RH  060%=      5-min Rain = 0
KPD1 181314Z 18009KT 25/16 A2999 RMK A01 T02460163  RH  060%=      5-min Rain = 0
KPD1 181315Z 18012KT 25/16 A2999 RMK A01 T02460163  RH  060%=      5-min Rain = 0
KPD1 181316Z 18009G14KT 25/16 A2999 RMK A01 T02470162  RH  059%=      5-min Rain = 0
KPD1 181317Z 18010KT 25/16 A2999 RMK A01 T02470162  RH  059%=      5-min Rain = 0
KPD1 181318Z 18008KT 25/16 A2999 RMK A01 T02480164  RH  059%=      5-min Rain = 0
KPD1 181319Z 18007KT 25/17 A2999 RMK A01 T02490165  RH  059%=      5-min Rain = 0
KPD1 181320Z 17010KT 25/17 A2999 RMK A01 T02500165  RH  059%=      5-min Rain = 0
KPD1 181321Z 17010KT 25/16 A2999 RMK A01 T02490164  RH  059%=      5-min Rain = 0
KPD1 181322Z 17010KT 25/16 A2999 RMK A01 T02490163  RH  059%=      5-min Rain = 0
KPD1 181323Z 17011G16KT 25/16 A2999 RMK A01 T02500163  RH  058%=      5-min Rain = 0
KPD1 181324Z 16009KT 25/16 A2999 RMK A01 T02510163  RH  058%=      5-min Rain = 0
KPD1 181325Z 17013KT 25/16 A2999 RMK A01 T02520163  RH  058%=      5-min Rain = 0
KPD1 181326Z 17011G17KT 25/16 A2999 RMK A01 T02520164  RH  058%=      5-min Rain = 0
KPD1 181327Z 18013KT 25/16 A2999 RMK A01 T02530164  RH  058%=      5-min Rain = 0
KPD1 181328Z 17009KT 25/16 A2999 RMK A01 T02530163  RH  058%=      5-min Rain = 0
KPD1 181329Z 17009G14KT 25/16 A2999 RMK A01 T02530164  RH  058%=      5-min Rain = 0
KPD1 181330Z 17013KT 25/16 A2999 RMK A01 T02540164  RH  058%=      5-min Rain = 0
KPD1 181331Z 18011KT 25/16 A2999 RMK A01 T02530163  RH  057%=      5-min Rain = 0
KPD1 181332Z 17013KT 25/16 A2999 RMK A01 T02540164  RH  057%=      5-min Rain = 0
KPD1 181333Z 18011KT 25/16 A2999 RMK A01 T02540164  RH  057%=      5-min Rain = 0
KPD1 181334Z 17013KT 25/16 A2999 RMK A01 T02540164  RH  057%=      5-min Rain = 0
KPD1 181335Z 19011KT 26/16 A2999 RMK A01 T02550164  RH  057%=      5-min Rain = 0
KPD1 181336Z 18014G19KT 26/16 A2999 RMK A01 T02560164  RH  057%=      5-min Rain = 0
KPD1 181337Z 18013KT 26/16 A2999 RMK A01 T02560163  RH  056%=      5-min Rain = 0
KPD1 181338Z 18012KT 26/16 A2999 RMK A01 T02570164  RH  057%=      5-min Rain = 0
KPD1 181339Z 18012KT 26/16 A2999 RMK A01 T02560164  RH  057%=      5-min Rain = 0
KPD1 181340Z 18013KT 26/16 A2999 RMK A01 T02570164  RH  056%=      5-min Rain = 0
KPD1 181341Z 19008KT 26/16 A2999 RMK A01 T02570164  RH  056%=      5-min Rain = 0
KPD1 181342Z 18008KT 26/17 A2999 RMK A01 T02590166  RH  057%=      5-min Rain = 0
KPD1 181343Z 18011G16KT 26/17 A2999 RMK A01 T02600166  RH  056%=      5-min Rain = 0
KPD1 181344Z 20011KT 26/16 A2999 RMK A01 T02600163  RH  055%=      5-min Rain = 0
KPD1 181345Z 19014KT 26/16 A2999 RMK A01 T02610163  RH  055%=      5-min Rain = 0
KPD1 181346Z 19011G18KT 26/16 A2999 RMK A01 T02610164  RH  055%=      5-min Rain = 0
KPD1 181347Z 19016KT 26/16 A2999 RMK A01 T02610163  RH  055%=      5-min Rain = 0
KPD1 181348Z 19015G22KT 26/16 A2999 RMK A01 T02610163  RH  055%=      5-min Rain = 0
KPD1 181349Z 19019KT 26/16 A2999 RMK A01 T02610163  RH  055%=      5-min Rain = 0
KPD1 181350Z 19015KT 26/16 A2999 RMK A01 T02620162  RH  054%=      5-min Rain = 0
KPD1 181351Z 19016KT 26/16 A2999 RMK A01 T02620162  RH  054%=      5-min Rain = 0
KPD1 181352Z 19013KT 26/16 A2999 RMK A01 T02630163  RH  054%=      5-min Rain = 0
KPD1 181353Z 19015KT 26/16 A2999 RMK A01 T02640163  RH  054%=      5-min Rain = 0
KPD1 181354Z 19011KT 26/16 A2999 RMK A01 T02640162  RH  054%=      5-min Rain = 0
KPD1 181355Z 19010KT 26/16 A2999 RMK A01 T02640164  RH  054%=      5-min Rain = 0
KPD1 181356Z 18015KT 27/16 A2999 RMK A01 T02660164  RH  054%=      5-min Rain = 0
KPD1 181357Z 18013KT 27/16 A2999 RMK A01 T02650163  RH  053%=      5-min Rain = 0
KPD1 181358Z 17014G19KT 27/16 A2999 RMK A01 T02660163  RH  053%=      5-min Rain = 0
KPD1 181359Z 18012KT 27/16 A2999 RMK A01 T02660163  RH  053%=      5-min Rain = 0
KPD1 181400Z 18011KT 27/16 A2999 RMK A01 T02670163  RH  053%=      5-min Rain = 0
KPD1 181401Z 17018G23KT 27/16 A2999 RMK A01 T02680163  RH  053%=      5-min Rain = 0
KPD1 181402Z 17015KT 27/16 A2999 RMK A01 T02680162  RH  052%=      5-min Rain = 0
KPD1 181403Z 17014KT 27/16 A2999 RMK A01 T02680162  RH  052%=      5-min Rain = 0
KPD1 181404Z 18014KT 27/16 A2999 RMK A01 T02680162  RH  052%=      5-min Rain = 0
KPD1 181405Z 17012KT 27/16 A2999 RMK A01 T02680162  RH  052%=      5-min Rain = 0
KPD1 181406Z 19014G20KT 27/16 A30 RMK A01 T02700163  RH  052%=      5-min Rain = 0
KPD1 181407Z 18016KT 27/16 A2999 RMK A01 T02700162  RH  051%=      5-min Rain = 0
KPD1 181408Z 18015G20KT 27/16 A2999 RMK A01 T02700161  RH  051%=      5-min Rain = 0
KPD1 181409Z 18014G22KT 27/16 A2999 RMK A01 T02700162  RH  051%=      5-min Rain = 0
KPD1 181410Z 19019G24KT 27/16 A2999 RMK A01 T02700160  RH  051%=      5-min Rain = 0
KPD1 181411Z 18017KT 27/16 A2999 RMK A01 T02700160  RH  051%=      5-min Rain = 0
KPD1 181412Z 18015G20KT 27/16 A2999 RMK A01 T02700160  RH  051%=      5-min Rain = 0
KPD1 181413Z 19015KT 27/16 A2999 RMK A01 T02700159  RH  051%=      5-min Rain = 0
KPD1 181414Z 19014KT 27/16 A2999 RMK A01 T02710159  RH  050%=      5-min Rain = 0
KPD1 181415Z 18014KT 27/16 A2999 RMK A01 T02710159  RH  050%=      5-min Rain = 0
KPD1 181416Z 19014G19KT 27/16 A30 RMK A01 T02720159  RH  050%=      5-min Rain = 0
KPD1 181417Z 18014KT 27/16 A2999 RMK A01 T02720159  RH  050%=      5-min Rain = 0
KPD1 181418Z 18012KT 27/16 A2999 RMK A01 T02730160  RH  050%=      5-min Rain = 0
KPD1 181419Z 18010KT 27/16 A2999 RMK A01 T02740161  RH  050%=      5-min Rain = 0
KPD1 181420Z 18011KT 27/16 A2999 RMK A01 T02740161  RH  050%=      5-min Rain = 0
KPD1 181421Z 18013KT 28/16 A2999 RMK A01 T02750161  RH  050%=      5-min Rain = 0
KPD1 181422Z 18012G18KT 28/16 A2999 RMK A01 T02770160  RH  049%=      5-min Rain = 0
KPD1 181423Z 18012KT 28/16 A2999 RMK A01 T02770159  RH  049%=      5-min Rain = 0
KPD1 181424Z 19010KT 28/16 A2999 RMK A01 T02770160  RH  049%=      5-min Rain = 0
KPD1 181425Z 18012G17KT 28/16 A2999 RMK A01 T02770162  RH  049%=      5-min Rain = 0
KPD1 181426Z 18014KT 28/16 A2999 RMK A01 T02780159  RH  048%=      5-min Rain = 0
KPD1 181427Z 18014KT 28/16 A2999 RMK A01 T02780160  RH  048%=      5-min Rain = 0
KPD1 181428Z 17014KT 28/16 A2999 RMK A01 T02780158  RH  048%=      5-min Rain = 0
KPD1 181429Z 17013G19KT 28/16 A2999 RMK A01 T02770158  RH  048%=      5-min Rain = 0
KPD1 181430Z 17012KT 28/16 A2999 RMK A01 T02780158  RH  048%=      5-min Rain = 0
KPD1 181431Z 17014KT 28/16 A2999 RMK A01 T02790159  RH  048%=      5-min Rain = 0
KPD1 181432Z 18013G18KT 28/16 A2999 RMK A01 T02800157  RH  047%=      5-min Rain = 0
KPD1 181433Z 17016G21KT 28/16 A2999 RMK A01 T02800157  RH  047%=      5-min Rain = 0
KPD1 181434Z 18015G20KT 28/16 A2999 RMK A01 T02800156  RH  047%=      5-min Rain = 0
KPD1 181435Z 18015KT 28/16 A2999 RMK A01 T02800157  RH  047%=      5-min Rain = 0
KPD1 181436Z 18017G23KT 28/16 A2999 RMK A01 T02810156  RH  047%=      5-min Rain = 0
KPD1 181437Z 19015KT 28/15 A2999 RMK A01 T02820154  RH  046%=      5-min Rain = 0
KPD1 181438Z 19016KT 28/15 A2999 RMK A01 T02810154  RH  046%=      5-min Rain = 0
KPD1 181439Z 20016G21KT 28/15 A2999 RMK A01 T02820154  RH  046%=      5-min Rain = 0
KPD1 181440Z 20014G20KT 28/15 A2999 RMK A01 T02830153  RH  045%=      5-min Rain = 0
KPD1 181441Z 20018KT 28/15 A2999 RMK A01 T02830154  RH  045%=      5-min Rain = 0
KPD1 181442Z 19011G16KT 28/16 A2999 RMK A01 T02840155  RH  045%=      5-min Rain = 0
KPD1 181443Z 19012KT 29/16 A2999 RMK A01 T02850157  RH  046%=      5-min Rain = 0
KPD1 181444Z 19012KT 29/16 A2999 RMK A01 T02860156  RH  045%=      5-min Rain = 0
KPD1 181445Z 19014KT 29/16 A2999 RMK A01 T02870155  RH  044%=      5-min Rain = 0
KPD1 181446Z 19014KT 29/16 A2999 RMK A01 T02880155  RH  044%=      5-min Rain = 0
KPD1 181447Z 20017G22KT 29/15 A2999 RMK A01 T02880154  RH  044%=      5-min Rain = 0
KPD1 181448Z 19013KT 29/15 A2999 RMK A01 T02880153  RH  044%=      5-min Rain = 0
KPD1 181449Z 19016G22KT 29/15 A2999 RMK A01 T02880154  RH  044%=      5-min Rain = 0
KPD1 181450Z 19015G20KT 29/15 A2999 RMK A01 T02880154  RH  044%=      5-min Rain = 0
KPD1 181451Z 19012G19KT 29/15 A2999 RMK A01 T02880153  RH  044%=      5-min Rain = 0
KPD1 181452Z 19013G19KT 29/16 A2999 RMK A01 T02890155  RH  044%=      5-min Rain = 0
KPD1 181453Z 19012G17KT 29/15 A2999 RMK A01 T02890154  RH  044%=      5-min Rain = 0
KPD1 181454Z 18009KT 29/16 A2999 RMK A01 T02900156  RH  044%=      5-min Rain = 0
KPD1 181455Z 18013KT 29/16 A2999 RMK A01 T02910157  RH  044%=      5-min Rain = 0
KPD1 181456Z 18014KT 29/16 A2999 RMK A01 T02920156  RH  044%=      5-min Rain = 0
KPD1 181457Z 19014KT 29/16 A2999 RMK A01 T02920155  RH  043%=      5-min Rain = 0
KPD1 181458Z 19016G21KT 29/16 A2999 RMK A01 T02930156  RH  043%=      5-min Rain = 0
KPD1 181459Z 20016G21KT 29/16 A2999 RMK A01 T02930155  RH  043%=      5-min Rain = 0
KPD1 181500Z 19017KT 29/16 A2999 RMK A01 T02920155  RH  043%=      5-min Rain = 0
KPD1 181501Z 19015G20KT 29/16 A2999 RMK A01 T02920155  RH  043%=      5-min Rain = 0
KPD1 181502Z 20017KT 29/16 A2999 RMK A01 T02920155  RH  043%=      5-min Rain = 0
KPD1 181503Z 19015KT 29/15 A2999 RMK A01 T02910154  RH  043%=      5-min Rain = 0
KPD1 181504Z 18011KT 29/16 A2999 RMK A01 T02910156  RH  044%=      5-min Rain = 0
KPD1 181505Z 19014G19KT 29/16 A2999 RMK A01 T02930156  RH  044%=      5-min Rain = 0
KPD1 181506Z 20011G16KT 29/16 A2999 RMK A01 T02940156  RH  043%=      5-min Rain = 0
KPD1 181507Z 20014KT 30/16 A2999 RMK A01 T02960158  RH  043%=      5-min Rain = 0
KPD1 181508Z 21016KT 30/16 A2999 RMK A01 T02970157  RH  043%=      5-min Rain = 0
KPD1 181509Z 20014KT 30/16 A2999 RMK A01 T02970157  RH  043%=      5-min Rain = 0
KPD1 181510Z 19013KT 30/16 A2999 RMK A01 T02960156  RH  043%=      5-min Rain = 0
KPD1 181511Z 19011G16KT 30/16 A2999 RMK A01 T02960157  RH  043%=      5-min Rain = 0
KPD1 181512Z 18013KT 30/16 A2999 RMK A01 T02980158  RH  043%=      5-min Rain = 0
KPD1 181513Z 18016KT 30/16 A2999 RMK A01 T02980156  RH  042%=      5-min Rain = 0
KPD1 181514Z 18014KT 30/16 A2999 RMK A01 T02990156  RH  042%=      5-min Rain = 0
KPD1 181515Z 19014KT 30/16 A2999 RMK A01 T02990157  RH  042%=      5-min Rain = 0
KPD1 181516Z 18013G18KT 30/16 A2999 RMK A01 T02990156  RH  042%=      5-min Rain = 0
KPD1 181517Z 19008KT 30/16 A2999 RMK A01 T03000158  RH  042%=      5-min Rain = 0
KPD1 181518Z 18008KT 30/16 A2999 RMK A01 T03030161  RH  042%=      5-min Rain = 0
KPD1 181519Z 18011KT 31/16 A2999 RMK A01 T03060159  RH  041%=      5-min Rain = 0
KPD1 181520Z 20011G17KT 31/16 A2999 RMK A01 T03070158  RH  041%=      5-min Rain = 0
KPD1 181521Z 20012G18KT 31/16 A2999 RMK A01 T03070156  RH  040%=      5-min Rain = 0
KPD1 181522Z 19012KT 31/16 A2999 RMK A01 T03070156  RH  040%=      5-min Rain = 0
KPD1 181523Z 20010KT 31/16 A2998 RMK A01 T03070156  RH  040%=      5-min Rain = 0
KPD1 181524Z 20010KT 31/16 A2998 RMK A01 T03070155  RH  040%=      5-min Rain = 0
KPD1 181525Z 21011KT 31/16 A2998 RMK A01 T03090157  RH  040%=      5-min Rain = 0
KPD1 181526Z 19010KT 31/16 A2998 RMK A01 T03100156  RH  039%=      5-min Rain = 0
KPD1 181527Z 17013G19KT 31/16 A2998 RMK A01 T03110157  RH  039%=      5-min Rain = 0
KPD1 181528Z 19011G16KT 31/16 A2998 RMK A01 T03100155  RH  039%=      5-min Rain = 0
KPD1 181529Z 19013G19KT 31/16 A2998 RMK A01 T03090155  RH  039%=      5-min Rain = 0
KPD1 181530Z 19014KT 31/16 A2998 RMK A01 T03090155  RH  039%=      5-min Rain = 0
KPD1 181531Z 18015G20KT 31/15 A2998 RMK A01 T03080154  RH  039%=      5-min Rain = 0
KPD1 181532Z 19014G19KT 31/15 A2998 RMK A01 T03070154  RH  039%=      5-min Rain = 0
KPD1 181533Z 20013KT 31/15 A2998 RMK A01 T03080152  RH  039%=      5-min Rain = 0
KPD1 181534Z 20013KT 31/15 A2998 RMK A01 T03080152  RH  039%=      5-min Rain = 0
KPD1 181535Z 20012KT 31/15 A2998 RMK A01 T03080153  RH  039%=      5-min Rain = 0
KPD1 181536Z 18011KT 31/16 A2998 RMK A01 T03080155  RH  040%=      5-min Rain = 0
KPD1 181537Z 18009G14KT 31/15 A2998 RMK A01 T03090154  RH  039%=      5-min Rain = 0
KPD1 181538Z 18011KT 31/16 A2998 RMK A01 T03100157  RH  039%=      5-min Rain = 0
KPD1 181539Z 19014KT 31/16 A2999 RMK A01 T03120156  RH  039%=      5-min Rain = 0
KPD1 181540Z 18011G16KT 31/16 A2998 RMK A01 T03120155  RH  039%=      5-min Rain = 0
KPD1 181541Z 18015KT 31/16 A2998 RMK A01 T03120156  RH  039%=      5-min Rain = 0
KPD1 181542Z 17012G17KT 31/16 A2998 RMK A01 T03110156  RH  039%=      5-min Rain = 0
KPD1 181543Z 19009G14KT 31/16 A2998 RMK A01 T03110158  RH  040%=      5-min Rain = 0
KPD1 181544Z 19013KT 31/16 A2998 RMK A01 T03130159  RH  040%=      5-min Rain = 0
KPD1 181545Z 19014KT 32/16 A2998 RMK A01 T03150157  RH  039%=      5-min Rain = 0
KPD1 181546Z 20016KT 31/15 A2998 RMK A01 T03140154  RH  038%=      5-min Rain = 0
KPD1 181547Z 19012G17KT 31/16 A2998 RMK A01 T03120156  RH  039%=      5-min Rain = 0
KPD1 181548Z 19013KT 31/16 A2998 RMK A01 T03110156  RH  039%=      5-min Rain = 0
KPD1 181549Z 19012KT 31/16 A2998 RMK A01 T03120157  RH  039%=      5-min Rain = 0
KPD1 181550Z 19011KT 31/16 A2998 RMK A01 T03120158  RH  039%=      5-min Rain = 0
KPD1 181551Z 19011KT 31/16 A2998 RMK A01 T03120157  RH  039%=      5-min Rain = 0
KPD1 181552Z 17011G17KT 31/16 A2998 RMK A01 T03120158  RH  039%=      5-min Rain = 0
KPD1 181553Z 19016G22KT 31/16 A2998 RMK A01 T03140157  RH  039%=      5-min Rain = 0
KPD1 181554Z 19016KT 31/16 A2998 RMK A01 T03140155  RH  038%=      5-min Rain = 0
KPD1 181555Z 19014G19KT 31/16 A2998 RMK A01 T03120156  RH  039%=      5-min Rain = 0
KPD1 181556Z 19013KT 31/16 A2998 RMK A01 T03120156  RH  039%=      5-min Rain = 0
KPD1 181557Z 19013KT 31/16 A2998 RMK A01 T03130157  RH  039%=      5-min Rain = 0
KPD1 181558Z 20014KT 31/16 A2998 RMK A01 T03140158  RH  039%=      5-min Rain = 0
KPD1 181559Z 19014KT 31/16 A2998 RMK A01 T03140158  RH  039%=      5-min Rain = 0
KPD1 181600Z 19013KT 31/16 A2998 RMK A01 T03120157  RH  039%=      5-min Rain = 0
KPD1 181601Z 20012KT 31/16 A2998 RMK A01 T03120158  RH  039%=      5-min Rain = 0
KPD1 181602Z 20013G19KT 31/16 A2998 RMK A01 T03140158  RH  039%=      5-min Rain = 0
KPD1 181603Z 20010KT 32/16 A2998 RMK A01 T03160159  RH  039%=      5-min Rain = 0
KPD1 181604Z 19013G18KT 32/16 A2998 RMK A01 T03170160  RH  039%=      5-min Rain = 0
KPD1 181605Z 19014KT 32/16 A2998 RMK A01 T03200160  RH  038%=      5-min Rain = 0
KPD1 181606Z 19014KT 32/16 A2998 RMK A01 T03200158  RH  038%=      5-min Rain = 0
KPD1 181607Z 20010KT 32/16 A2998 RMK A01 T03200159  RH  038%=      5-min Rain = 0
KPD1 181608Z 20013KT 32/16 A2998 RMK A01 T03190158  RH  038%=      5-min Rain = 0
KPD1 181609Z 20013KT 32/16 A2998 RMK A01 T03190159  RH  038%=      5-min Rain = 0
KPD1 181610Z 19011G16KT 32/16 A2998 RMK A01 T03180160  RH  039%=      5-min Rain = 0
KPD1 181611Z 20014G19KT 32/16 A2998 RMK A01 T03190160  RH  038%=      5-min Rain = 0
KPD1 181612Z 19013KT 32/16 A2998 RMK A01 T03190158  RH  038%=      5-min Rain = 0
KPD1 181613Z 20013KT 32/16 A2998 RMK A01 T03190158  RH  038%=      5-min Rain = 0
KPD1 181614Z 20010KT 32/16 A2998 RMK A01 T03200159  RH  038%=      5-min Rain = 0
KPD1 181615Z 19010KT 32/16 A2998 RMK A01 T03210160  RH  038%=      5-min Rain = 0
KPD1 181616Z 20009G14KT 32/16 A2998 RMK A01 T03210161  RH  038%=      5-min Rain = 0
KPD1 181617Z 21010KT 32/16 A2998 RMK A01 T03240160  RH  037%=      5-min Rain = 0
KPD1 181618Z 21011G16KT 32/16 A2998 RMK A01 T03240159  RH  037%=      5-min Rain = 0
KPD1 181619Z 19013KT 33/16 A2998 RMK A01 T03250159  RH  037%=      5-min Rain = 0
KPD1 181620Z 18013KT 33/16 A2998 RMK A01 T03260158  RH  037%=      5-min Rain = 0
KPD1 181621Z 19012KT 33/16 A2998 RMK A01 T03260157  RH  036%=      5-min Rain = 0
KPD1 181622Z 18011G16KT 33/16 A2998 RMK A01 T03260158  RH  036%=      5-min Rain = 0
KPD1 181623Z 19014G19KT 33/16 A2998 RMK A01 T03260158  RH  036%=      5-min Rain = 0
KPD1 181624Z 20012KT 33/16 A2998 RMK A01 T03260158  RH  037%=      5-min Rain = 0
KPD1 181625Z 20012KT 33/16 A2998 RMK A01 T03260158  RH  036%=      5-min Rain = 0
KPD1 181626Z 19014G19KT 33/16 A2998 RMK A01 T03270158  RH  036%=      5-min Rain = 0
KPD1 181627Z 19014G19KT 33/16 A2998 RMK A01 T03290158  RH  036%=      5-min Rain = 0
KPD1 181628Z 19016KT 33/16 A2998 RMK A01 T03290158  RH  036%=      5-min Rain = 0
KPD1 181629Z 21016KT 33/16 A2998 RMK A01 T03280155  RH  035%=      5-min Rain = 0
KPD1 181630Z 22012KT 33/15 A2998 RMK A01 T03280154  RH  035%=      5-min Rain = 0
KPD1 181631Z 21012G17KT 33/16 A2998 RMK A01 T03250155  RH  036%=      5-min Rain = 0
KPD1 181632Z 22011KT 33/16 A2998 RMK A01 T03270156  RH  036%=      5-min Rain = 0
KPD1 181633Z 20009G14KT 33/16 A2998 RMK A01 T03280157  RH  036%=      5-min Rain = 0
KPD1 181634Z 21009KT 33/16 A2998 RMK A01 T03310159  RH  036%=      5-min Rain = 0
KPD1 181635Z 20008G13KT 33/16 A2998 RMK A01 T03330159  RH  035%=      5-min Rain = 0
KPD1 181636Z 21012KT 33/16 A2998 RMK A01 T03340160  RH  035%=      5-min Rain = 0
KPD1 181637Z 20011KT 34/16 A2998 RMK A01 T03360160  RH  035%=      5-min Rain = 0
KPD1 181638Z 20009KT 33/16 A2998 RMK A01 T03340157  RH  035%=      5-min Rain = 0
KPD1 181639Z 19011KT 33/16 A2998 RMK A01 T03330158  RH  035%=      5-min Rain = 0
KPD1 181640Z 20006KT 33/16 A2998 RMK A01 T03340158  RH  035%=      5-min Rain = 0
KPD1 181641Z 22006G11KT 34/16 A2998 RMK A01 T03370159  RH  035%=      5-min Rain = 0
KPD1 181642Z 20009G14KT 34/16 A2998 RMK A01 T03380160  RH  035%=      5-min Rain = 0
KPD1 181643Z 21011KT 34/16 A2998 RMK A01 T03380155  RH  034%=      5-min Rain = 0
KPD1 181644Z 21010G15KT 34/16 A2998 RMK A01 T03360157  RH  034%=      5-min Rain = 0
KPD1 181645Z 19009G15KT 34/16 A2998 RMK A01 T03370162  RH  035%=      5-min Rain = 0
KPD1 181646Z 19012KT 34/16 A2998 RMK A01 T03410162  RH  034%=      5-min Rain = 0
KPD1 181647Z 19006KT 34/16 A2997 RMK A01 T03420161  RH  034%=      5-min Rain = 0
KPD1 181648Z 19009KT 34/16 A2997 RMK A01 T03420161  RH  034%=      5-min Rain = 0
KPD1 181649Z 18007KT 34/16 A2997 RMK A01 T03410160  RH  034%=      5-min Rain = 0
KPD1 181650Z 17010KT 34/16 A2997 RMK A01 T03410162  RH  035%=      5-min Rain = 0
KPD1 181651Z 18010KT 34/16 A2997 RMK A01 T03430160  RH  034%=      5-min Rain = 0
KPD1 181652Z 20009KT 34/16 A2997 RMK A01 T03430159  RH  033%=      5-min Rain = 0
KPD1 181653Z 21010KT 34/16 A2997 RMK A01 T03440160  RH  033%=      5-min Rain = 0
KPD1 181654Z 21010KT 35/16 A2997 RMK A01 T03450156  RH  032%=      5-min Rain = 0
KPD1 181655Z 19008KT 34/16 A2997 RMK A01 T03410155  RH  033%=      5-min Rain = 0
KPD1 181656Z 21013KT 34/16 A2997 RMK A01 T03410158  RH  033%=      5-min Rain = 0
KPD1 181657Z 19011KT 34/16 A2997 RMK A01 T03420156  RH  033%=      5-min Rain = 0
KPD1 181658Z 19010KT 34/15 A2997 RMK A01 T03400154  RH  033%=      5-min Rain = 0
KPD1 181659Z 19010KT 34/16 A2997 RMK A01 T03400156  RH  033%=      5-min Rain = 0
KPD1 181700Z 21008KT 34/16 A2997 RMK A01 T03420156  RH  033%=      5-min Rain = 0
KPD1 181701Z 20009KT 34/16 A2996 RMK A01 T03440159  RH  033%=      5-min Rain = 0
KPD1 181702Z 18013KT 35/16 A2997 RMK A01 T03480160  RH  033%=      5-min Rain = 0
KPD1 181703Z 17011G17KT 35/16 A2996 RMK A01 T03490158  RH  032%=      5-min Rain = 0
KPD1 181704Z 17012KT 35/16 A2997 RMK A01 T03490157  RH  032%=      5-min Rain = 0
KPD1 181705Z 18009KT 35/16 A2997 RMK A01 T03480156  RH  032%=      5-min Rain = 0
KPD1 181706Z 20011KT 35/16 A2997 RMK A01 T03470155  RH  032%=      5-min Rain = 0
KPD1 181707Z 20008KT 35/15 A2997 RMK A01 T03490154  RH  031%=      5-min Rain = 0
KPD1 181708Z 17009KT 35/16 A2997 RMK A01 T03510156  RH  031%=      5-min Rain = 0
KPD1 181709Z 18009G14KT 35/16 A2996 RMK A01 T03520157  RH  031%=      5-min Rain = 0
KPD1 181710Z 19009KT 35/16 A2996 RMK A01 T03510155  RH  031%=      5-min Rain = 0
KPD1 181711Z 19011KT 35/16 A2996 RMK A01 T03530158  RH  031%=      5-min Rain = 0
KPD1 181712Z 19009KT 35/16 A2996 RMK A01 T03540157  RH  031%=      5-min Rain = 0
KPD1 181713Z 20010G17KT 36/16 A2996 RMK A01 T03560156  RH  030%=      5-min Rain = 0
KPD1 181714Z 21014KT 36/15 A2996 RMK A01 T03550152  RH  030%=      5-min Rain = 0
KPD1 181715Z 21012KT 35/15 A2996 RMK A01 T03520151  RH  030%=      5-min Rain = 0
KPD1 181716Z 19010KT 35/15 A2996 RMK A01 T03510154  RH  031%=      5-min Rain = 0
KPD1 181717Z 20011KT 35/15 A2996 RMK A01 T03520154  RH  031%=      5-min Rain = 0
KPD1 181718Z 18011KT 35/15 A2996 RMK A01 T03520153  RH  030%=      5-min Rain = 0
KPD1 181719Z 19011KT 35/16 A2996 RMK A01 T03530156  RH  031%=      5-min Rain = 0
KPD1 181720Z 17012G17KT 36/16 A2996 RMK A01 T03560155  RH  030%=      5-min Rain = 0
KPD1 181721Z 18014KT 36/15 A2996 RMK A01 T03570151  RH  029%=      5-min Rain = 0
KPD1 181722Z 19008G14KT 35/15 A2996 RMK A01 T03540151  RH  030%=      5-min Rain = 0
KPD1 181723Z 20011G17KT 36/15 A2996 RMK A01 T03550154  RH  030%=      5-min Rain = 0
KPD1 181724Z 18014KT 36/15 A2996 RMK A01 T03560152  RH  030%=      5-min Rain = 0
KPD1 181725Z 19012KT 35/15 A2996 RMK A01 T03540152  RH  030%=      5-min Rain = 0
KPD1 181726Z 19010KT 35/15 A2996 RMK A01 T03520153  RH  030%=      5-min Rain = 0
KPD1 181727Z 20009KT 35/15 A2996 RMK A01 T03500152  RH  031%=      5-min Rain = 0
KPD1 181728Z 18008KT 35/16 A2996 RMK A01 T03520157  RH  031%=      5-min Rain = 0
KPD1 181729Z 18012KT 36/15 A2996 RMK A01 T03570153  RH  030%=      5-min Rain = 0
KPD1 181730Z 19013KT 36/15 A2996 RMK A01 T03580152  RH  029%=      5-min Rain = 0
KPD1 181731Z 20013KT 36/15 A2996 RMK A01 T03570152  RH  030%=      5-min Rain = 0
KPD1 181732Z 20014KT 36/15 A2996 RMK A01 T03570153  RH  030%=      5-min Rain = 0
KPD1 181733Z 16010G15KT 36/15 A2996 RMK A01 T03560153  RH  030%=      5-min Rain = 0
KPD1 181734Z 17018KT 36/15 A2996 RMK A01 T03560151  RH  029%=      5-min Rain = 0
KPD1 181735Z 18013KT 36/15 A2996 RMK A01 T03560150  RH  029%=      5-min Rain = 0
KPD1 181736Z 17009G14KT 35/15 A2996 RMK A01 T03540148  RH  029%=      5-min Rain = 0
KPD1 181737Z 17012KT 35/15 A2996 RMK A01 T03530149  RH  030%=      5-min Rain = 0
KPD1 181738Z 16013G20KT 36/15 A2996 RMK A01 T03550150  RH  029%=      5-min Rain = 0
KPD1 181739Z 17011G16KT 36/15 A2995 RMK A01 T03570151  RH  029%=      5-min Rain = 0
KPD1 181740Z 17012KT 36/15 A2995 RMK A01 T03580153  RH  030%=      5-min Rain = 0
KPD1 181741Z 16014KT 36/15 A2996 RMK A01 T03590153  RH  029%=      5-min Rain = 0
KPD1 181742Z 18011KT 36/15 A2996 RMK A01 T03590152  RH  029%=      5-min Rain = 0
KPD1 181743Z 18011KT 36/15 A2996 RMK A01 T03590154  RH  030%=      5-min Rain = 0
KPD1 181744Z 19011KT 36/15 A2996 RMK A01 T03580153  RH  029%=      5-min Rain = 0
KPD1 181745Z 17012KT 36/15 A2995 RMK A01 T03570154  RH  030%=      5-min Rain = 0
KPD1 181746Z 17014KT 36/15 A2995 RMK A01 T03560151  RH  029%=      5-min Rain = 0
KPD1 181747Z 17010G17KT 36/15 A2995 RMK A01 T03570151  RH  029%=      5-min Rain = 0
KPD1 181748Z 17010G20KT 36/15 A2995 RMK A01 T03600152  RH  029%=      5-min Rain = 0
KPD1 181749Z 17012KT 36/15 A2995 RMK A01 T03590151  RH  029%=      5-min Rain = 0
KPD1 181750Z 18010KT 36/15 A2995 RMK A01 T03580152  RH  029%=      5-min Rain = 0
KPD1 181751Z 19011KT 36/15 A2995 RMK A01 T03610153  RH  029%=      5-min Rain = 0
KPD1 181752Z 17013G18KT 36/15 A2995 RMK A01 T03630153  RH  029%=      5-min Rain = 0
KPD1 181753Z 17012KT 36/15 A2995 RMK A01 T03640152  RH  028%=      5-min Rain = 0
KPD1 181754Z 18008KT 37/15 A2995 RMK A01 T03650154  RH  029%=      5-min Rain = 0
KPD1 181755Z 17012G18KT 37/16 A2995 RMK A01 T03660155  RH  029%=      5-min Rain = 0
KPD1 181756Z 19012G17KT 37/15 A2995 RMK A01 T03670153  RH  028%=      5-min Rain = 0
KPD1 181757Z 19010KT 37/16 A2995 RMK A01 T03650155  RH  029%=      5-min Rain = 0
KPD1 181758Z 19009G15KT 37/16 A2995 RMK A01 T03650155  RH  029%=      5-min Rain = 0
KPD1 181759Z 16012KT 37/15 A2995 RMK A01 T03650154  RH  028%=      5-min Rain = 0
KPD1 181800Z 19010G21KT 37/16 A2995 RMK A01 T03660156  RH  029%=      5-min Rain = 0
KPD1 181801Z 19013G18KT 37/15 A2995 RMK A01 T03660151  RH  028%=      5-min Rain = 0
KPD1 181802Z 20015KT 36/15 A2995 RMK A01 T03630152  RH  029%=      5-min Rain = 0
KPD1 181803Z 20014KT 36/15 A2995 RMK A01 T03610153  RH  029%=      5-min Rain = 0
KPD1 181804Z 20013KT 36/15 A2995 RMK A01 T03600152  RH  029%=      5-min Rain = 0
KPD1 181805Z 18011KT 36/16 A2995 RMK A01 T03610155  RH  029%=      5-min Rain = 0
KPD1 181806Z 18014KT 37/16 A2995 RMK A01 T03650155  RH  029%=      5-min Rain = 0
KPD1 181807Z 17017G24KT 37/15 A2995 RMK A01 T03650151  RH  028%=      5-min Rain = 0
KPD1 181808Z 17015KT 36/15 A2994 RMK A01 T03640150  RH  028%=      5-min Rain = 0
KPD1 181809Z 19016KT 36/15 A2995 RMK A01 T03640148  RH  028%=      5-min Rain = 0
KPD1 181810Z 20014KT 36/15 A2995 RMK A01 T03630150  RH  028%=      5-min Rain = 0
KPD1 181811Z 18008G15KT 36/15 A2994 RMK A01 T03620153  RH  029%=      5-min Rain = 0
KPD1 181812Z 18012KT 37/15 A2994 RMK A01 T03650154  RH  029%=      5-min Rain = 0
KPD1 181813Z 18013G19KT 37/15 A2994 RMK A01 T03670152  RH  028%=      5-min Rain = 0
KPD1 181814Z 20011KT 37/15 A2994 RMK A01 T03670151  RH  028%=      5-min Rain = 0
KPD1 181815Z 18012G19KT 37/15 A2994 RMK A01 T03680152  RH  028%=      5-min Rain = 0
KPD1 181816Z 17015KT 37/15 A2994 RMK A01 T03670149  RH  027%=      5-min Rain = 0
KPD1 181817Z 18014G19KT 37/15 A2994 RMK A01 T03680149  RH  027%=      5-min Rain = 0
KPD1 181818Z 18015G21KT 37/15 A2994 RMK A01 T03680148  RH  027%=      5-min Rain = 0
KPD1 181819Z 18016G22KT 37/15 A2994 RMK A01 T03670148  RH  027%=      5-min Rain = 0
KPD1 181820Z 18015G21KT 37/15 A2994 RMK A01 T03660150  RH  028%=      5-min Rain = 0
KPD1 181821Z 18014KT 37/15 A2994 RMK A01 T03670147  RH  027%=      5-min Rain = 0
KPD1 181822Z 19011KT 37/15 A2994 RMK A01 T03660145  RH  027%=      5-min Rain = 0
KPD1 181823Z 20012KT 37/14 A2994 RMK A01 T03660144  RH  027%=      5-min Rain = 0
KPD1 181824Z 20013G23KT 37/15 A2994 RMK A01 T03690146  RH  027%=      5-min Rain = 0
KPD1 181825Z 19014G22KT 37/15 A2994 RMK A01 T03690148  RH  027%=      5-min Rain = 0
KPD1 181826Z 19009KT 37/15 A2994 RMK A01 T03680153  RH  028%=      5-min Rain = 0
KPD1 181827Z 18009G14KT 37/16 A2994 RMK A01 T03720156  RH  028%=      5-min Rain = 0
KPD1 181828Z 19011G16KT 37/15 A2994 RMK A01 T03740152  RH  027%=      5-min Rain = 0
KPD1 181829Z 19012G17KT 37/15 A2994 RMK A01 T03730147  RH  026%=      5-min Rain = 0
KPD1 181830Z 20016G21KT 37/15 A2994 RMK A01 T03720147  RH  026%=      5-min Rain = 0
KPD1 181831Z 20014KT 37/15 A2994 RMK A01 T03710148  RH  027%=      5-min Rain = 0
KPD1 181832Z 20010KT 37/15 A2994 RMK A01 T03690150  RH  027%=      5-min Rain = 0
KPD1 181833Z 20012G17KT 37/15 A2994 RMK A01 T03680152  RH  028%=      5-min Rain = 0
KPD1 181834Z 17015G20KT 37/15 A2994 RMK A01 T03690153  RH  028%=      5-min Rain = 0
KPD1 181835Z 18016KT 37/15 A2993 RMK A01 T03710150  RH  027%=      5-min Rain = 0
KPD1 181836Z 17014G21KT 37/15 A2994 RMK A01 T03710150  RH  027%=      5-min Rain = 0
KPD1 181837Z 16014KT 37/15 A2993 RMK A01 T03700149  RH  027%=      5-min Rain = 0
KPD1 181838Z 18015G24KT 37/15 A2993 RMK A01 T03680147  RH  027%=      5-min Rain = 0
KPD1 181839Z 18016G22KT 37/15 A2993 RMK A01 T03680148  RH  027%=      5-min Rain = 0
KPD1 181840Z 17018G25KT 37/15 A2993 RMK A01 T03660148  RH  027%=      5-min Rain = 0
KPD1 181841Z 18014G21KT 37/15 A2993 RMK A01 T03660149  RH  028%=      5-min Rain = 0
KPD1 181842Z 19017KT 37/15 A2993 RMK A01 T03660145  RH  027%=      5-min Rain = 0
KPD1 181843Z 20016KT 37/14 A2994 RMK A01 T03660142  RH  026%=      5-min Rain = 0
KPD1 181844Z 19015KT 37/14 A2993 RMK A01 T03670143  RH  026%=      5-min Rain = 0
KPD1 181845Z 20017G23KT 37/15 A2993 RMK A01 T03680146  RH  027%=      5-min Rain = 0
KPD1 181846Z 20016KT 37/15 A2993 RMK A01 T03690148  RH  027%=      5-min Rain = 0
KPD1 181847Z 20013G20KT 37/15 A2993 RMK A01 T03690150  RH  027%=      5-min Rain = 0
KPD1 181848Z 20014G19KT 37/15 A2993 RMK A01 T03680148  RH  027%=      5-min Rain = 0
KPD1 181849Z 18012G17KT 37/15 A2993 RMK A01 T03680149  RH  027%=      5-min Rain = 0
KPD1 181850Z 19014G19KT 37/15 A2993 RMK A01 T03730150  RH  027%=      5-min Rain = 0
KPD1 181851Z 20015KT 38/15 A2993 RMK A01 T03760149  RH  026%=      5-min Rain = 0
KPD1 181852Z 20015KT 38/15 A2993 RMK A01 T03760147  RH  026%=      5-min Rain = 0
KPD1 181853Z 19016KT 37/15 A2993 RMK A01 T03740145  RH  026%=      5-min Rain = 0
KPD1 181854Z 19016G21KT 37/15 A2993 RMK A01 T03720147  RH  026%=      5-min Rain = 0
KPD1 181855Z 18015KT 37/15 A2993 RMK A01 T03710152  RH  027%=      5-min Rain = 0
KPD1 181856Z 20011G16KT 37/15 A2993 RMK A01 T03700153  RH  028%=      5-min Rain = 0
KPD1 181857Z 20013KT 37/16 A2993 RMK A01 T03730156  RH  028%=      5-min Rain = 0
KPD1 181858Z 18010G15KT 38/16 A2993 RMK A01 T03750155  RH  027%=      5-min Rain = 0
KPD1 181859Z 18010KT 38/15 A2993 RMK A01 T03770152  RH  027%=      5-min Rain = 0
KPD1 181900Z 19013G19KT 38/15 A2993 RMK A01 T03780152  RH  026%=      5-min Rain = 0
KPD1 181901Z 19018G23KT 38/14 A2993 RMK A01 T03790141  RH  024%=      5-min Rain = 0
KPD1 181902Z 18018G23KT 38/14 A2993 RMK A01 T03770138  RH  024%=      5-min Rain = 0
KPD1 181903Z 18014KT 38/14 A2993 RMK A01 T03750143  RH  025%=      5-min Rain = 0
KPD1 181904Z 18015G20KT 38/15 A2993 RMK A01 T03750146  RH  026%=      5-min Rain = 0
KPD1 181905Z 20013KT 38/15 A2993 RMK A01 T03750150  RH  026%=      5-min Rain = 0
KPD1 181906Z 19014KT 37/15 A2993 RMK A01 T03740150  RH  027%=      5-min Rain = 0
KPD1 181907Z 18012KT 37/15 A2993 RMK A01 T03740151  RH  027%=      5-min Rain = 0
KPD1 181908Z 20013KT 38/15 A2993 RMK A01 T03750149  RH  026%=      5-min Rain = 0
KPD1 181909Z 20018KT 38/14 A2993 RMK A01 T03770139  RH  024%=      5-min Rain = 0
KPD1 181910Z 19013KT 38/14 A2993 RMK A01 T03760136  RH  024%=      5-min Rain = 0
KPD1 181911Z 20014G21KT 38/14 A2993 RMK A01 T03770142  RH  025%=      5-min Rain = 0
KPD1 181912Z 18017KT 38/15 A2993 RMK A01 T03770145  RH  025%=      5-min Rain = 0
KPD1 181913Z 18015KT 38/15 A2993 RMK A01 T03760146  RH  026%=      5-min Rain = 0
KPD1 181914Z 18011KT 37/15 A2993 RMK A01 T03740146  RH  026%=      5-min Rain = 0
KPD1 181915Z 19011G16KT 37/14 A2993 RMK A01 T03740144  RH  026%=      5-min Rain = 0
KPD1 181916Z 17013G18KT 37/15 A2993 RMK A01 T03740146  RH  026%=      5-min Rain = 0
KPD1 181917Z 17013KT 38/15 A2993 RMK A01 T03780146  RH  025%=      5-min Rain = 0
KPD1 181918Z 18015KT 38/15 A2993 RMK A01 T03800145  RH  025%=      5-min Rain = 0
KPD1 181919Z 18013KT 38/14 A2992 RMK A01 T03790143  RH  025%=      5-min Rain = 0
KPD1 181920Z 19013G18KT 38/14 A2992 RMK A01 T03780143  RH  025%=      5-min Rain = 0
KPD1 181921Z 20014G19KT 38/15 A2992 RMK A01 T03790145  RH  025%=      5-min Rain = 0
KPD1 181922Z 18016G22KT 38/14 A2992 RMK A01 T03800144  RH  025%=      5-min Rain = 0
KPD1 181923Z 17016KT 38/14 A2992 RMK A01 T03800141  RH  024%=      5-min Rain = 0
KPD1 181924Z 18012KT 38/14 A2992 RMK A01 T03790140  RH  024%=      5-min Rain = 0
KPD1 181925Z 19012G20KT 38/14 A2992 RMK A01 T03800140  RH  024%=      5-min Rain = 0
KPD1 181926Z 19017KT 38/14 A2992 RMK A01 T03790138  RH  024%=      5-min Rain = 0
KPD1 181927Z 19014KT 38/14 A2992 RMK A01 T03770138  RH  024%=      5-min Rain = 0
KPD1 181928Z 19012G17KT 38/14 A2992 RMK A01 T03760139  RH  024%=      5-min Rain = 0
KPD1 181929Z 18014KT 38/14 A2992 RMK A01 T03790140  RH  024%=      5-min Rain = 0
KPD1 181930Z 17014KT 38/14 A2992 RMK A01 T03790140  RH  024%=      5-min Rain = 0
KPD1 181931Z 17014KT 38/14 A2992 RMK A01 T03780140  RH  024%=      5-min Rain = 0
KPD1 181932Z 18012KT 38/14 A2992 RMK A01 T03770140  RH  024%=      5-min Rain = 0
KPD1 181933Z 20013G19KT 38/14 A2992 RMK A01 T03770141  RH  025%=      5-min Rain = 0
KPD1 181934Z 19014G20KT 38/14 A2992 RMK A01 T03780140  RH  024%=      5-min Rain = 0
KPD1 181935Z 19016G24KT 38/14 A2992 RMK A01 T03770138  RH  024%=      5-min Rain = 0
KPD1 181936Z 18012KT 38/14 A2992 RMK A01 T03780137  RH  024%=      5-min Rain = 0
KPD1 181937Z 18009KT 38/14 A2992 RMK A01 T03800138  RH  024%=      5-min Rain = 0
KPD1 181938Z 19015G20KT 38/14 A2992 RMK A01 T03790138  RH  024%=      5-min Rain = 0
KPD1 181939Z 18012G17KT 38/14 A2992 RMK A01 T03780137  RH  024%=      5-min Rain = 0
KPD1 181940Z 17016G22KT 38/13 A2992 RMK A01 T03790134  RH  023%=      5-min Rain = 0
KPD1 181941Z 17015G22KT 38/14 A2992 RMK A01 T03800135  RH  023%=      5-min Rain = 0
KPD1 181942Z 17016G21KT 38/13 A2992 RMK A01 T03810131  RH  023%=      5-min Rain = 0
KPD1 181943Z 19016G21KT 38/13 A2992 RMK A01 T03800131  RH  023%=      5-min Rain = 0
KPD1 181944Z 18015G20KT 38/13 A2992 RMK A01 T03790133  RH  023%=      5-min Rain = 0
KPD1 181945Z 18010KT 38/13 A2992 RMK A01 T03800128  RH  022%=      5-min Rain = 0
KPD1 181946Z 18011KT 38/13 A2992 RMK A01 T03810128  RH  022%=      5-min Rain = 0
KPD1 181947Z 19010KT 38/13 A2991 RMK A01 T03810131  RH  023%=      5-min Rain = 0
KPD1 181948Z 19016G21KT 39/14 A2992 RMK A01 T03850136  RH  023%=      5-min Rain = 0
KPD1 181949Z 17015G21KT 39/14 A2991 RMK A01 T03860135  RH  023%=      5-min Rain = 0
KPD1 181950Z 17010KT 38/13 A2991 RMK A01 T03840132  RH  022%=      5-min Rain = 0
KPD1 181951Z 18015G20KT 38/13 A2991 RMK A01 T03830133  RH  023%=      5-min Rain = 0
KPD1 181952Z 18019KT 38/14 A2992 RMK A01 T03840135  RH  023%=      5-min Rain = 0
KPD1 181953Z 18013KT 38/14 A2992 RMK A01 T03810135  RH  023%=      5-min Rain = 0
KPD1 181954Z 18016KT 38/14 A2991 RMK A01 T03790135  RH  023%=      5-min Rain = 0
KPD1 181955Z 19017KT 38/13 A2991 RMK A01 T03780131  RH  023%=      5-min Rain = 0
KPD1 181956Z 19014KT 38/13 A2992 RMK A01 T03780130  RH  023%=      5-min Rain = 0
KPD1 181957Z 18016G21KT 38/13 A2991 RMK A01 T03810132  RH  023%=      5-min Rain = 0
KPD1 181958Z 18014KT 38/13 A2991 RMK A01 T03820133  RH  023%=      5-min Rain = 0
KPD1 181959Z 17011KT 38/14 A2991 RMK A01 T03820137  RH  023%=      5-min Rain = 0
KPD1 182000Z 16012KT 38/14 A2991 RMK A01 T03820137  RH  023%=      5-min Rain = 0
KPD1 182001Z 18010G15KT 38/14 A2991 RMK A01 T03820141  RH  024%=      5-min Rain = 0
KPD1 182002Z 17014G21KT 39/14 A2991 RMK A01 T03850141  RH  024%=      5-min Rain = 0
KPD1 182003Z 18012KT 39/14 A2991 RMK A01 T03860139  RH  023%=      5-min Rain = 0
KPD1 182004Z 20016KT 39/14 A2991 RMK A01 T03860137  RH  023%=      5-min Rain = 0
KPD1 182005Z 18016G21KT 39/14 A2991 RMK A01 T03850137  RH  023%=      5-min Rain = 0
KPD1 182006Z 18013G18KT 38/14 A2991 RMK A01 T03840139  RH  023%=      5-min Rain = 0
KPD1 182007Z 18010G17KT 38/14 A2991 RMK A01 T03820140  RH  024%=      5-min Rain = 0
KPD1 182008Z 17010KT 38/14 A2991 RMK A01 T03790144  RH  025%=      5-min Rain = 0
KPD1 182009Z 17010KT 38/14 A2991 RMK A01 T03810142  RH  024%=      5-min Rain = 0
KPD1 182010Z 19010G16KT 38/15 A2991 RMK A01 T03840145  RH  024%=      5-min Rain = 0
KPD1 182011Z 18011KT 39/14 A2991 RMK A01 T03890144  RH  024%=      5-min Rain = 0
KPD1 182012Z 18014G20KT 39/14 A2991 RMK A01 T03910144  RH  023%=      5-min Rain = 0
KPD1 182013Z 19017G23KT 39/14 A2991 RMK A01 T03920141  RH  023%=      5-min Rain = 0
KPD1 182014Z 17017KT 39/14 A2991 RMK A01 T03880140  RH  023%=      5-min Rain = 0
KPD1 182015Z 18012KT 38/14 A2991 RMK A01 T03840139  RH  024%=      5-min Rain = 0
KPD1 182016Z 18009G14KT 38/14 A2991 RMK A01 T03830140  RH  024%=      5-min Rain = 0
KPD1 182017Z 18013G21KT 38/14 A2991 RMK A01 T03840140  RH  024%=      5-min Rain = 0
KPD1 182018Z 18008G13KT 38/14 A2991 RMK A01 T03840138  RH  023%=      5-min Rain = 0
KPD1 182019Z 16009G15KT 38/14 A2991 RMK A01 T03840139  RH  023%=      5-min Rain = 0
KPD1 182020Z 17011G16KT 39/14 A2991 RMK A01 T03860141  RH  023%=      5-min Rain = 0
KPD1 182021Z 19013KT 39/14 A299 RMK A01 T03890140  RH  023%=      5-min Rain = 0
KPD1 182022Z 15016KT 39/14 A2991 RMK A01 T03890138  RH  023%=      5-min Rain = 0
KPD1 182023Z 16013KT 39/14 A2991 RMK A01 T03890137  RH  023%=      5-min Rain = 0
KPD1 182024Z 17010G16KT 39/14 A299 RMK A01 T03880136  RH  022%=      5-min Rain = 0
KPD1 182025Z 18013KT 39/14 A299 RMK A01 T03890137  RH  022%=      5-min Rain = 0
KPD1 182026Z 18010KT 39/14 A299 RMK A01 T03880138  RH  023%=      5-min Rain = 0
KPD1 182027Z 18009KT 39/14 A299 RMK A01 T03880139  RH  023%=      5-min Rain = 0
KPD1 182028Z 17012G21KT 39/14 A299 RMK A01 T03900141  RH  023%=      5-min Rain = 0
KPD1 182029Z 16016G21KT 39/14 A299 RMK A01 T03900140  RH  023%=      5-min Rain = 0
KPD1 182030Z 16014G19KT 39/14 A299 RMK A01 T03880138  RH  023%=      5-min Rain = 0
KPD1 182031Z 18011G16KT 39/14 A299 RMK A01 T03860139  RH  023%=      5-min Rain = 0
KPD1 182032Z 17011G20KT 39/14 A299 RMK A01 T03870139  RH  023%=      5-min Rain = 0
KPD1 182033Z 15013G18KT 39/14 A299 RMK A01 T03880136  RH  023%=      5-min Rain = 0
KPD1 182034Z 17011KT 39/14 A299 RMK A01 T03860138  RH  023%=      5-min Rain = 0
KPD1 182035Z 19012G19KT 39/14 A299 RMK A01 T03870139  RH  023%=      5-min Rain = 0
KPD1 182036Z 19015G20KT 39/14 A299 RMK A01 T03890138  RH  023%=      5-min Rain = 0
KPD1 182037Z 18016KT 39/14 A299 RMK A01 T03890137  RH  023%=      5-min Rain = 0
KPD1 182038Z 18015KT 39/13 A299 RMK A01 T03860133  RH  022%=      5-min Rain = 0
KPD1 182039Z 18011G16KT 39/13 A299 RMK A01 T03850134  RH  023%=      5-min Rain = 0
KPD1 182040Z 18015G21KT 38/14 A299 RMK A01 T03840138  RH  023%=      5-min Rain = 0
KPD1 182041Z 18013KT 38/14 A299 RMK A01 T03830137  RH  023%=      5-min Rain = 0
KPD1 182042Z 19014KT 38/14 A299 RMK A01 T03820141  RH  024%=      5-min Rain = 0
KPD1 182043Z 17013KT 38/14 A299 RMK A01 T03830141  RH  024%=      5-min Rain = 0
KPD1 182044Z 18009G14KT 38/14 A299 RMK A01 T03840142  RH  024%=      5-min Rain = 0
KPD1 182045Z 19014G19KT 39/14 A299 RMK A01 T03850142  RH  024%=      5-min Rain = 0
KPD1 182046Z 18015KT 39/14 A299 RMK A01 T03860140  RH  023%=      5-min Rain = 0
KPD1 182047Z 18009KT 38/14 A299 RMK A01 T03830139  RH  024%=      5-min Rain = 0
KPD1 182048Z 18010KT 38/14 A299 RMK A01 T03810141  RH  024%=      5-min Rain = 0
KPD1 182049Z 17014KT 38/14 A299 RMK A01 T03830141  RH  024%=      5-min Rain = 0
KPD1 182050Z 18012KT 39/14 A299 RMK A01 T03850142  RH  024%=      5-min Rain = 0
KPD1 182051Z 17012KT 39/14 A299 RMK A01 T03850141  RH  024%=      5-min Rain = 0
KPD1 182052Z 17013KT 39/14 A299 RMK A01 T03850139  RH  023%=      5-min Rain = 0
KPD1 182053Z 19017G25KT 39/14 A299 RMK A01 T03850139  RH  023%=      5-min Rain = 0
KPD1 182054Z 19018KT 38/14 A299 RMK A01 T03840140  RH  023%=      5-min Rain = 0
KPD1 182055Z 18015G21KT 38/14 A299 RMK A01 T03840139  RH  023%=      5-min Rain = 0
KPD1 182056Z 18014G21KT 38/14 A299 RMK A01 T03820140  RH  024%=      5-min Rain = 0
KPD1 182057Z 19014KT 38/14 A299 RMK A01 T03830139  RH  024%=      5-min Rain = 0
KPD1 182058Z 19017G22KT 38/14 A299 RMK A01 T03830139  RH  023%=      5-min Rain = 0
KPD1 182059Z 19017G22KT 38/14 A299 RMK A01 T03830137  RH  023%=      5-min Rain = 0
KPD1 182100Z 20016G23KT 38/14 A299 RMK A01 T03820136  RH  023%=      5-min Rain = 0
KPD1 182101Z 17010G16KT 38/14 A299 RMK A01 T03800136  RH  024%=      5-min Rain = 0
KPD1 182102Z 17008KT 38/14 A299 RMK A01 T03810137  RH  024%=      5-min Rain = 0
KPD1 182103Z 15011G16KT 38/14 A299 RMK A01 T03840138  RH  023%=      5-min Rain = 0
KPD1 182104Z 17016G24KT 39/13 A299 RMK A01 T03870134  RH  022%=      5-min Rain = 0
KPD1 182105Z 16016G21KT 39/13 A299 RMK A01 T03860134  RH  022%=      5-min Rain = 0
KPD1 182106Z 16015KT 39/13 A299 RMK A01 T03850134  RH  023%=      5-min Rain = 0
KPD1 182107Z 16015G21KT 39/13 A299 RMK A01 T03860133  RH  022%=      5-min Rain = 0
KPD1 182108Z 15012KT 39/13 A299 RMK A01 T03860134  RH  022%=      5-min Rain = 0
KPD1 182109Z 16012KT 39/14 A299 RMK A01 T03890136  RH  022%=      5-min Rain = 0
KPD1 182110Z 18014G20KT 39/14 A299 RMK A01 T03900137  RH  022%=      5-min Rain = 0
KPD1 182111Z 18016KT 39/14 A299 RMK A01 T03880137  RH  023%=      5-min Rain = 0
KPD1 182112Z 19014KT 39/14 A299 RMK A01 T03850139  RH  023%=      5-min Rain = 0
KPD1 182113Z 18012KT 38/14 A299 RMK A01 T03830138  RH  023%=      5-min Rain = 0
KPD1 182114Z 18009KT 38/14 A299 RMK A01 T03840139  RH  023%=      5-min Rain = 0
KPD1 182115Z 16010KT 39/14 A2989 RMK A01 T03850139  RH  023%=      5-min Rain = 0
KPD1 182116Z 15009G14KT 39/14 A2989 RMK A01 T03880141  RH  023%=      5-min Rain = 0
KPD1 182117Z 17012KT 39/14 A2989 RMK A01 T03910139  RH  023%=      5-min Rain = 0
KPD1 182118Z 16018G29KT 39/14 A2989 RMK A01 T03920140  RH  023%=      5-min Rain = 0
KPD1 182119Z 18016KT 39/14 A299 RMK A01 T03900137  RH  022%=      5-min Rain = 0
KPD1 182120Z 18014G21KT 39/14 A2989 RMK A01 T03880138  RH  023%=      5-min Rain = 0
KPD1 182121Z 18017G22KT 39/14 A2989 RMK A01 T03870136  RH  023%=      5-min Rain = 0
KPD1 182122Z 18011G17KT 39/14 A2989 RMK A01 T03850136  RH  023%=      5-min Rain = 0
KPD1 182123Z 18016KT 38/14 A2989 RMK A01 T03840137  RH  023%=      5-min Rain = 0
KPD1 182124Z 18014KT 39/14 A2989 RMK A01 T03850137  RH  023%=      5-min Rain = 0
KPD1 182125Z 17010G15KT 38/14 A2989 RMK A01 T03840140  RH  024%=      5-min Rain = 0
KPD1 182126Z 18012KT 39/14 A2989 RMK A01 T03880143  RH  023%=      5-min Rain = 0
KPD1 182127Z 18015G20KT 39/14 A2989 RMK A01 T03890140  RH  023%=      5-min Rain = 0
KPD1 182128Z 18017KT 39/14 A2989 RMK A01 T03880138  RH  023%=      5-min Rain = 0
KPD1 182129Z 19016G23KT 39/14 A2989 RMK A01 T03860135  RH  022%=      5-min Rain = 0
KPD1 182130Z 19013KT 39/14 A2989 RMK A01 T03850135  RH  023%=      5-min Rain = 0
KPD1 182131Z 16013G20KT 39/14 A2989 RMK A01 T03850135  RH  023%=      5-min Rain = 0
KPD1 182132Z 17014G21KT 39/14 A2989 RMK A01 T03850136  RH  023%=      5-min Rain = 0
KPD1 182133Z 17012G17KT 39/14 A2989 RMK A01 T03860136  RH  023%=      5-min Rain = 0
KPD1 182134Z 18012KT 39/13 A2989 RMK A01 T03870134  RH  022%=      5-min Rain = 0
KPD1 182135Z 19010KT 39/13 A2989 RMK A01 T03860134  RH  022%=      5-min Rain = 0
KPD1 182136Z 18011KT 39/14 A2989 RMK A01 T03870137  RH  023%=      5-min Rain = 0
KPD1 182137Z 16017G23KT 39/14 A2989 RMK A01 T03900139  RH  023%=      5-min Rain = 0
KPD1 182138Z 17015G20KT 39/14 A2989 RMK A01 T03900136  RH  022%=      5-min Rain = 0
KPD1 182139Z 17013KT 39/14 A2988 RMK A01 T03870137  RH  023%=      5-min Rain = 0
KPD1 182140Z 17009KT 39/14 A2989 RMK A01 T03870140  RH  023%=      5-min Rain = 0
KPD1 182141Z 15009KT 39/14 A2988 RMK A01 T03900141  RH  023%=      5-min Rain = 0
KPD1 182142Z 17012KT 39/14 A2988 RMK A01 T03940141  RH  022%=      5-min Rain = 0
KPD1 182143Z 18009KT 39/14 A2988 RMK A01 T03940141  RH  022%=      5-min Rain = 0
KPD1 182144Z 17010G15KT 40/14 A2988 RMK A01 T03950141  RH  022%=      5-min Rain = 0
KPD1 182145Z 15016G21KT 40/14 A2988 RMK A01 T03950140  RH  022%=      5-min Rain = 0
KPD1 182146Z 16015G20KT 39/14 A2988 RMK A01 T03940139  RH  022%=      5-min Rain = 0
KPD1 182147Z 16012G17KT 39/14 A2988 RMK A01 T03920139  RH  022%=      5-min Rain = 0
KPD1 182148Z 17016G23KT 39/14 A2988 RMK A01 T03910138  RH  023%=      5-min Rain = 0
KPD1 182149Z 19012KT 39/14 A2988 RMK A01 T03900140  RH  023%=      5-min Rain = 0
KPD1 182150Z 17009G16KT 39/14 A2988 RMK A01 T03910141  RH  023%=      5-min Rain = 0
KPD1 182151Z 16015KT 39/14 A2988 RMK A01 T03930138  RH  022%=      5-min Rain = 0
KPD1 182152Z 18011G17KT 39/14 A2988 RMK A01 T03920137  RH  022%=      5-min Rain = 0
KPD1 182153Z 15012G19KT 39/14 A2988 RMK A01 T03910137  RH  022%=      5-min Rain = 0
KPD1 182154Z 18011G17KT 39/14 A2988 RMK A01 T03910138  RH  022%=      5-min Rain = 0
KPD1 182155Z 19017KT 39/14 A2988 RMK A01 T03930139  RH  022%=      5-min Rain = 0
KPD1 182156Z 19014KT 39/14 A2988 RMK A01 T03920137  RH  022%=      5-min Rain = 0
KPD1 182157Z 19017KT 39/14 A2988 RMK A01 T03920136  RH  022%=      5-min Rain = 0
KPD1 182158Z 19015G20KT 39/13 A2988 RMK A01 T03890134  RH  022%=      5-min Rain = 0
KPD1 182159Z 20011G16KT 38/13 A2988 RMK A01 T03840134  RH  023%=      5-min Rain = 0
KPD1 182200Z 18015G20KT 39/14 A2988 RMK A01 T03850137  RH  023%=      5-min Rain = 0
KPD1 182201Z 18014G20KT 39/14 A2988 RMK A01 T03880138  RH  023%=      5-min Rain = 0
KPD1 182202Z 18011KT 39/14 A2988 RMK A01 T03890137  RH  022%=      5-min Rain = 0
KPD1 182203Z 18014G21KT 39/14 A2988 RMK A01 T03900137  RH  022%=      5-min Rain = 0
KPD1 182204Z 18012G18KT 39/14 A2988 RMK A01 T03910137  RH  022%=      5-min Rain = 0
KPD1 182205Z 20013G18KT 39/14 A2988 RMK A01 T03910138  RH  022%=      5-min Rain = 0
KPD1 182206Z 21014KT 39/14 A2988 RMK A01 T03910139  RH  023%=      5-min Rain = 0
KPD1 182207Z 20015KT 39/14 A2988 RMK A01 T03920138  RH  022%=      5-min Rain = 0
KPD1 182208Z 20013G18KT 39/14 A2988 RMK A01 T03920138  RH  022%=      5-min Rain = 0
KPD1 182209Z 19015KT 39/14 A2988 RMK A01 T03920138  RH  022%=      5-min Rain = 0
KPD1 182210Z 19015KT 39/14 A2988 RMK A01 T03900137  RH  022%=      5-min Rain = 0
KPD1 182211Z 18014KT 39/14 A2988 RMK A01 T03880137  RH  023%=      5-min Rain = 0
KPD1 182212Z 18015KT 39/14 A2988 RMK A01 T03880137  RH  023%=      5-min Rain = 0
KPD1 182213Z 17012KT 39/14 A2988 RMK A01 T03880138  RH  023%=      5-min Rain = 0
KPD1 182214Z 17015G20KT 39/14 A2988 RMK A01 T03890136  RH  022%=      5-min Rain = 0
KPD1 182215Z 16016KT 39/13 A2988 RMK A01 T03890134  RH  022%=      5-min Rain = 0
KPD1 182216Z 16011G16KT 39/13 A2988 RMK A01 T03880134  RH  022%=      5-min Rain = 0
KPD1 182217Z 16014G22KT 39/14 A2987 RMK A01 T03890136  RH  022%=      5-min Rain = 0
KPD1 182218Z 17014G19KT 39/14 A2988 RMK A01 T03900135  RH  022%=      5-min Rain = 0
KPD1 182219Z 17010KT 39/14 A2987 RMK A01 T03900136  RH  022%=      5-min Rain = 0
KPD1 182220Z 16014G20KT 39/14 A2987 RMK A01 T03900137  RH  022%=      5-min Rain = 0
KPD1 182221Z 18011G16KT 39/14 A2988 RMK A01 T03900136  RH  022%=      5-min Rain = 0
KPD1 182222Z 19013G18KT 39/14 A2988 RMK A01 T03900137  RH  022%=      5-min Rain = 0
KPD1 182223Z 19012G19KT 39/14 A2988 RMK A01 T03910136  RH  022%=      5-min Rain = 0
KPD1 182224Z 19014KT 39/14 A2987 RMK A01 T03910135  RH  022%=      5-min Rain = 0
KPD1 182225Z 18013G19KT 39/14 A2987 RMK A01 T03900136  RH  022%=      5-min Rain = 0
KPD1 182226Z 19012G20KT 39/14 A2987 RMK A01 T03910137  RH  022%=      5-min Rain = 0
KPD1 182227Z 17011KT 39/14 A2987 RMK A01 T03900136  RH  022%=      5-min Rain = 0
KPD1 182228Z 16011KT 39/14 A2987 RMK A01 T03890135  RH  022%=      5-min Rain = 0
KPD1 182229Z 19012G17KT 39/14 A2987 RMK A01 T03880135  RH  022%=      5-min Rain = 0
KPD1 182230Z 17012KT 39/14 A2987 RMK A01 T03870136  RH  023%=      5-min Rain = 0
KPD1 182231Z 16013KT 39/14 A2987 RMK A01 T03880135  RH  022%=      5-min Rain = 0
KPD1 182232Z 17010KT 39/14 A2987 RMK A01 T03890135  RH  022%=      5-min Rain = 0
KPD1 182233Z 18008KT 39/14 A2987 RMK A01 T03890136  RH  022%=      5-min Rain = 0
KPD1 182234Z 20015G22KT 39/14 A2987 RMK A01 T03900136  RH  022%=      5-min Rain = 0
KPD1 182235Z 20009G16KT 39/13 A2987 RMK A01 T03900133  RH  022%=      5-min Rain = 0
KPD1 182236Z 19011G16KT 39/14 A2987 RMK A01 T03910135  RH  022%=      5-min Rain = 0
KPD1 182237Z 18011KT 39/14 A2987 RMK A01 T03930136  RH  022%=      5-min Rain = 0
KPD1 182238Z 18014KT 39/13 A2987 RMK A01 T03940133  RH  021%=      5-min Rain = 0
KPD1 182239Z 20010G15KT 39/13 A2987 RMK A01 T03930132  RH  021%=      5-min Rain = 0
KPD1 182240Z 19010KT 39/13 A2987 RMK A01 T03910133  RH  022%=      5-min Rain = 0
KPD1 182241Z 18012G17KT 39/13 A2987 RMK A01 T03920133  RH  022%=      5-min Rain = 0
KPD1 182242Z 17011KT 39/13 A2987 RMK A01 T03930132  RH  021%=      5-min Rain = 0
KPD1 182243Z 17016G21KT 39/13 A2987 RMK A01 T03930131  RH  021%=      5-min Rain = 0
KPD1 182244Z 18016G21KT 39/13 A2987 RMK A01 T03910131  RH  021%=      5-min Rain = 0
KPD1 182245Z 18013G19KT 39/13 A2986 RMK A01 T03890132  RH  022%=      5-min Rain = 0
KPD1 182246Z 18015G21KT 39/13 A2987 RMK A01 T03890133  RH  022%=      5-min Rain = 0
KPD1 182247Z 18015G21KT 39/13 A2987 RMK A01 T03880133  RH  022%=      5-min Rain = 0
KPD1 182248Z 18014KT 39/14 A2987 RMK A01 T03870135  RH  022%=      5-min Rain = 0
KPD1 182249Z 18012G18KT 39/13 A2987 RMK A01 T03870134  RH  022%=      5-min Rain = 0
KPD1 182250Z 17014G20KT 39/13 A2986 RMK A01 T03880134  RH  022%=      5-min Rain = 0
KPD1 182251Z 19013KT 39/14 A2986 RMK A01 T03870135  RH  022%=      5-min Rain = 0
KPD1 182252Z 18009G15KT 39/14 A2986 RMK A01 T03860136  RH  023%=      5-min Rain = 0
KPD1 182253Z 17016G21KT 39/14 A2986 RMK A01 T03860136  RH  023%=      5-min Rain = 0
KPD1 182254Z 17012KT 39/14 A2986 RMK A01 T03860136  RH  023%=      5-min Rain = 0
KPD1 182255Z 18012KT 39/14 A2986 RMK A01 T03870137  RH  023%=      5-min Rain = 0
KPD1 182256Z 17012G19KT 39/14 A2986 RMK A01 T03870136  RH  023%=      5-min Rain = 0
KPD1 182257Z 16014KT 39/14 A2986 RMK A01 T03870136  RH  023%=      5-min Rain = 0
KPD1 182258Z 16019KT 39/14 A2986 RMK A01 T03870135  RH  022%=      5-min Rain = 0
KPD1 182259Z 16015G20KT 39/14 A2986 RMK A01 T03850135  RH  023%=      5-min Rain = 0
KPD1 182300Z 17016KT 39/14 A2986 RMK A01 T03850135  RH  023%=      5-min Rain = 0
KPD1 182301Z 18013KT 38/14 A2986 RMK A01 T03840135  RH  023%=      5-min Rain = 0
KPD1 182302Z 17011KT 38/14 A2986 RMK A01 T03840136  RH  023%=      5-min Rain = 0
KPD1 182303Z 16010KT 39/14 A2986 RMK A01 T03850136  RH  023%=      5-min Rain = 0
KPD1 182304Z 15010G15KT 39/14 A2986 RMK A01 T03860136  RH  023%=      5-min Rain = 0
KPD1 182305Z 17010KT 39/14 A2986 RMK A01 T03870135  RH  022%=      5-min Rain = 0
KPD1 182306Z 18007KT 39/14 A2986 RMK A01 T03870136  RH  023%=      5-min Rain = 0
KPD1 182307Z 17007G12KT 39/14 A2986 RMK A01 T03890138  RH  023%=      5-min Rain = 0
KPD1 182308Z 18007KT 39/14 A2986 RMK A01 T03900137  RH  022%=      5-min Rain = 0
KPD1 182309Z 17011G16KT 39/14 A2986 RMK A01 T03900137  RH  022%=      5-min Rain = 0
KPD1 182310Z 18012G17KT 39/14 A2986 RMK A01 T03900136  RH  022%=      5-min Rain = 0
KPD1 182311Z 18011KT 39/14 A2986 RMK A01 T03890136  RH  022%=      5-min Rain = 0
KPD1 182312Z 18013G19KT 39/14 A2986 RMK A01 T03880136  RH  022%=      5-min Rain = 0
KPD1 182313Z 17017KT 39/14 A2986 RMK A01 T03880135  RH  022%=      5-min Rain = 0
KPD1 182314Z 17015G21KT 39/14 A2986 RMK A01 T03860135  RH  023%=      5-min Rain = 0
KPD1 182315Z 18013KT 39/14 A2986 RMK A01 T03850136  RH  023%=      5-min Rain = 0
KPD1 182316Z 17012KT 39/14 A2986 RMK A01 T03860135  RH  023%=      5-min Rain = 0
KPD1 182317Z 17011KT 39/13 A2986 RMK A01 T03850134  RH  023%=      5-min Rain = 0
KPD1 182318Z 16011G16KT 38/14 A2986 RMK A01 T03840135  RH  023%=      5-min Rain = 0
KPD1 182319Z 16014KT 39/14 A2985 RMK A01 T03850135  RH  023%=      5-min Rain = 0
KPD1 182320Z 17010KT 39/14 A2986 RMK A01 T03850135  RH  023%=      5-min Rain = 0
KPD1 182321Z 19011KT 39/14 A2986 RMK A01 T03850135  RH  023%=      5-min Rain = 0
KPD1 182322Z 19011KT 39/14 A2986 RMK A01 T03850135  RH  023%=      5-min Rain = 0
KPD1 182323Z 19008KT 39/14 A2985 RMK A01 T03860136  RH  023%=      5-min Rain = 0
KPD1 182324Z 17009G15KT 39/14 A2985 RMK A01 T03860138  RH  023%=      5-min Rain = 0
KPD1 182325Z 17015KT 39/14 A2985 RMK A01 T03890135  RH  022%=      5-min Rain = 0
KPD1 182326Z 17015G20KT 39/13 A2985 RMK A01 T03880134  RH  022%=      5-min Rain = 0
KPD1 182327Z 18011G20KT 39/13 A2985 RMK A01 T03860134  RH  023%=      5-min Rain = 0
KPD1 182328Z 18012KT 39/14 A2985 RMK A01 T03860136  RH  023%=      5-min Rain = 0
KPD1 182329Z 18014G20KT 39/14 A2985 RMK A01 T03860135  RH  023%=      5-min Rain = 0
KPD1 182330Z 17016G22KT 39/13 A2985 RMK A01 T03850134  RH  023%=      5-min Rain = 0
KPD1 182331Z 17017G23KT 38/13 A2986 RMK A01 T03830133  RH  023%=      5-min Rain = 0
KPD1 182332Z 17016KT 38/13 A2985 RMK A01 T03820133  RH  023%=      5-min Rain = 0
KPD1 182333Z 18014G20KT 38/13 A2985 RMK A01 T03810134  RH  023%=      5-min Rain = 0
KPD1 182334Z 18014KT 38/13 A2985 RMK A01 T03810134  RH  023%=      5-min Rain = 0
KPD1 182335Z 17011G16KT 38/13 A2985 RMK A01 T03810134  RH  023%=      5-min Rain = 0
KPD1 182336Z 17014G19KT 38/13 A2985 RMK A01 T03800134  RH  023%=      5-min Rain = 0
KPD1 182337Z 17015KT 38/13 A2985 RMK A01 T03800134  RH  023%=      5-min Rain = 0
KPD1 182338Z 18011G21KT 38/13 A2985 RMK A01 T03790134  RH  023%=      5-min Rain = 0
KPD1 182339Z 18012G20KT 38/13 A2985 RMK A01 T03790134  RH  023%=      5-min Rain = 0
KPD1 182340Z 18011G21KT 38/13 A2985 RMK A01 T03800133  RH  023%=      5-min Rain = 0
KPD1 182341Z 18014G19KT 38/13 A2985 RMK A01 T03800134  RH  023%=      5-min Rain = 0
KPD1 182342Z 19016KT 38/14 A2985 RMK A01 T03800135  RH  023%=      5-min Rain = 0
KPD1 182343Z 17013G19KT 38/14 A2985 RMK A01 T03800136  RH  024%=      5-min Rain = 0
KPD1 182344Z 19020KT 38/14 A2985 RMK A01 T03790135  RH  023%=      5-min Rain = 0
KPD1 182345Z 19014G19KT 38/13 A2985 RMK A01 T03790133  RH  023%=      5-min Rain = 0
KPD1 182346Z 19012KT 38/13 A2985 RMK A01 T03770133  RH  023%=      5-min Rain = 0
KPD1 182347Z 19012G17KT 38/13 A2985 RMK A01 T03770134  RH  024%=      5-min Rain = 0
KPD1 182348Z 18015KT 38/13 A2985 RMK A01 T03770133  RH  023%=      5-min Rain = 0
KPD1 182349Z 18012G18KT 38/13 A2985 RMK A01 T03770133  RH  023%=      5-min Rain = 0
KPD1 182350Z 19012KT 38/13 A2985 RMK A01 T03780133  RH  023%=      5-min Rain = 0
KPD1 182351Z 17009KT 38/13 A2985 RMK A01 T03780133  RH  023%=      5-min Rain = 0
KPD1 182352Z 17012KT 38/13 A2985 RMK A01 T03800134  RH  023%=      5-min Rain = 0
KPD1 182353Z 18010KT 38/13 A2985 RMK A01 T03800132  RH  023%=      5-min Rain = 0
KPD1 182354Z 15010G15KT 38/13 A2985 RMK A01 T03800133  RH  023%=      5-min Rain = 0
KPD1 182355Z 17011KT 38/13 A2985 RMK A01 T03800132  RH  023%=      5-min Rain = 0
KPD1 182356Z 17010G17KT 38/13 A2985 RMK A01 T03800132  RH  023%=      5-min Rain = 0
KPD1 182357Z 17011KT 38/13 A2985 RMK A01 T03800132  RH  023%=      5-min Rain = 0
KPD1 182358Z 18008KT 38/13 A2985 RMK A01 T03800133  RH  023%=      5-min Rain = 0
KPD1 182359Z 18013KT 38/13 A2985 RMK A01 T03800132  RH  023%=      5-min Rain = 0
KPD1 190000Z 17013KT 38/13 A2985 RMK A01 T03790132  RH  023%=      5-min Rain = 0
KPD1 190001Z 18009KT 38/13 A2985 RMK A01 T03790132  RH  023%=      5-min Rain = 0
KPD1 190002Z 18008KT 38/13 A2985 RMK A01 T03790132  RH  023%=      5-min Rain = 0
KPD1 190003Z 17009KT 38/13 A2985 RMK A01 T03800134  RH  023%=      5-min Rain = 0
KPD1 190004Z 19012KT 38/13 A2985 RMK A01 T03800132  RH  023%=      5-min Rain = 0
KPD1 190005Z 17010G17KT 38/13 A2985 RMK A01 T03800131  RH  023%=      5-min Rain = 0
KPD1 190006Z 17014KT 38/13 A2985 RMK A01 T03800131  RH  023%=      5-min Rain = 0
KPD1 190007Z 17012KT 38/13 A2985 RMK A01 T03790131  RH  023%=      5-min Rain = 0
KPD1 190008Z 17014KT 38/13 A2985 RMK A01 T03800131  RH  023%=      5-min Rain = 0
KPD1 190009Z 17013KT 38/13 A2985 RMK A01 T03780129  RH  023%=      5-min Rain = 0
KPD1 190010Z 16009KT 38/13 A2985 RMK A01 T03780130  RH  023%=      5-min Rain = 0
KPD1 190011Z 17014KT 38/13 A2985 RMK A01 T03780131  RH  023%=      5-min Rain = 0
KPD1 190012Z 17014G20KT 38/13 A2985 RMK A01 T03770130  RH  023%=      5-min Rain = 0
KPD1 190013Z 16015G20KT 38/13 A2985 RMK A01 T03760130  RH  023%=      5-min Rain = 0
KPD1 190014Z 17016G23KT 38/13 A2985 RMK A01 T03760130  RH  023%=      5-min Rain = 0
KPD1 190015Z 18013KT 38/13 A2985 RMK A01 T03760130  RH  023%=      5-min Rain = 0
KPD1 190016Z 18014KT 38/13 A2985 RMK A01 T03750130  RH  023%=      5-min Rain = 0
KPD1 190017Z 19014KT 38/13 A2985 RMK A01 T03750130  RH  023%=      5-min Rain = 0
KPD1 190018Z 18011KT 38/13 A2985 RMK A01 T03750129  RH  023%=      5-min Rain = 0
KPD1 190019Z 19010KT 37/13 A2985 RMK A01 T03740130  RH  023%=      5-min Rain = 0
KPD1 190020Z 18010KT 38/13 A2986 RMK A01 T03750131  RH  023%=      5-min Rain = 0
KPD1 190021Z 18012KT 37/13 A2985 RMK A01 T03740131  RH  023%=      5-min Rain = 0
KPD1 190022Z 19011KT 37/13 A2985 RMK A01 T03740130  RH  023%=      5-min Rain = 0
KPD1 190023Z 18008KT 37/13 A2985 RMK A01 T03740131  RH  023%=      5-min Rain = 0
KPD1 190024Z 17008KT 38/13 A2985 RMK A01 T03750133  RH  024%=      5-min Rain = 0
KPD1 190025Z 17010KT 37/13 A2985 RMK A01 T03740134  RH  024%=      5-min Rain = 0
KPD1 190026Z 17013KT 37/13 A2985 RMK A01 T03740134  RH  024%=      5-min Rain = 0
KPD1 190027Z 18009G15KT 37/13 A2985 RMK A01 T03740133  RH  024%=      5-min Rain = 0
KPD1 190028Z 17014KT 37/13 A2985 RMK A01 T03740134  RH  024%=      5-min Rain = 0
KPD1 190029Z 17018KT 37/13 A2985 RMK A01 T03740133  RH  024%=      5-min Rain = 0
KPD1 190030Z 17014G20KT 37/13 A2985 RMK A01 T03730133  RH  024%=      5-min Rain = 0
KPD1 190031Z 17015G20KT 37/13 A2985 RMK A01 T03730134  RH  024%=      5-min Rain = 0
KPD1 190032Z 17013KT 37/14 A2985 RMK A01 T03720135  RH  024%=      5-min Rain = 0
KPD1 190033Z 17013KT 37/14 A2985 RMK A01 T03720136  RH  024%=      5-min Rain = 0
KPD1 190034Z 17010G15KT 37/14 A2985 RMK A01 T03720136  RH  024%=      5-min Rain = 0
KPD1 190035Z 16006G12KT 37/14 A2985 RMK A01 T03720136  RH  025%=      5-min Rain = 0
KPD1 190036Z 17010KT 37/14 A2985 RMK A01 T03720137  RH  025%=      5-min Rain = 0
KPD1 190037Z 17012G18KT 37/14 A2985 RMK A01 T03720138  RH  025%=      5-min Rain = 0
KPD1 190038Z 16016KT 37/14 A2985 RMK A01 T03720137  RH  025%=      5-min Rain = 0
KPD1 190039Z 16011G16KT 37/14 A2985 RMK A01 T03720137  RH  025%=      5-min Rain = 0
KPD1 190040Z 16014KT 37/14 A2985 RMK A01 T03720138  RH  025%=      5-min Rain = 0
KPD1 190041Z 16014G22KT 37/14 A2985 RMK A01 T03710138  RH  025%=      5-min Rain = 0
KPD1 190042Z 17013KT 37/14 A2985 RMK A01 T03710137  RH  025%=      5-min Rain = 0
KPD1 190043Z 17009KT 37/14 A2985 RMK A01 T03700138  RH  025%=      5-min Rain = 0
KPD1 190044Z 18010KT 37/14 A2985 RMK A01 T03700138  RH  025%=      5-min Rain = 0
KPD1 190045Z 18009KT 37/14 A2986 RMK A01 T03690139  RH  025%=      5-min Rain = 0
KPD1 190046Z 17008G14KT 37/14 A2986 RMK A01 T03690138  RH  025%=      5-min Rain = 0
KPD1 190047Z 18010KT 37/14 A2985 RMK A01 T03690139  RH  025%=      5-min Rain = 0
KPD1 190048Z 17010G16KT 37/14 A2986 RMK A01 T03680138  RH  025%=      5-min Rain = 0
KPD1 190049Z 16011KT 37/14 A2986 RMK A01 T03680138  RH  025%=      5-min Rain = 0
KPD1 190050Z 15011KT 37/14 A2986 RMK A01 T03680138  RH  025%=      5-min Rain = 0
KPD1 190051Z 16012KT 37/14 A2986 RMK A01 T03680137  RH  025%=      5-min Rain = 0
KPD1 190052Z 17010G15KT 37/14 A2986 RMK A01 T03670137  RH  025%=      5-min Rain = 0
KPD1 190053Z 17014G21KT 37/14 A2986 RMK A01 T03670137  RH  025%=      5-min Rain = 0
KPD1 190054Z 17013G18KT 37/14 A2986 RMK A01 T03670137  RH  025%=      5-min Rain = 0
KPD1 190055Z 16013G19KT 37/14 A2986 RMK A01 T03660137  RH  025%=      5-min Rain = 0
KPD1 190056Z 16013KT 37/14 A2986 RMK A01 T03660137  RH  025%=      5-min Rain = 0
KPD1 190057Z 17016G21KT 37/14 A2986 RMK A01 T03660137  RH  025%=      5-min Rain = 0
KPD1 190058Z 17016KT 37/14 A2986 RMK A01 T03650136  RH  025%=      5-min Rain = 0
KPD1 190059Z 18014G19KT 37/14 A2986 RMK A01 T03650136  RH  026%=      5-min Rain = 0
KPD1 190100Z 18015KT 36/14 A2986 RMK A01 T03640137  RH  026%=      5-min Rain = 0
KPD1 190101Z 17011KT 36/14 A2986 RMK A01 T03640136  RH  026%=      5-min Rain = 0
KPD1 190102Z 16013KT 36/14 A2986 RMK A01 T03640137  RH  026%=      5-min Rain = 0
KPD1 190103Z 17013KT 36/14 A2986 RMK A01 T03640137  RH  026%=      5-min Rain = 0
KPD1 190104Z 18016KT 36/14 A2986 RMK A01 T03640137  RH  026%=      5-min Rain = 0
KPD1 190105Z 16015G21KT 36/14 A2986 RMK A01 T03630136  RH  026%=      5-min Rain = 0
KPD1 190106Z 18016G22KT 36/14 A2986 RMK A01 T03630136  RH  026%=      5-min Rain = 0
KPD1 190107Z 18012KT 36/14 A2986 RMK A01 T03620136  RH  026%=      5-min Rain = 0
KPD1 190108Z 17014KT 36/14 A2986 RMK A01 T03620137  RH  026%=      5-min Rain = 0
KPD1 190109Z 17010KT 36/14 A2986 RMK A01 T03620137  RH  026%=      5-min Rain = 0
KPD1 190110Z 17011KT 36/14 A2986 RMK A01 T03610137  RH  026%=      5-min Rain = 0
KPD1 190111Z 16015G22KT 36/14 A2986 RMK A01 T03610137  RH  026%=      5-min Rain = 0
KPD1 190112Z 16018KT 36/14 A2986 RMK A01 T03600136  RH  026%=      5-min Rain = 0
KPD1 190113Z 16014G23KT 36/14 A2986 RMK A01 T03590136  RH  026%=      5-min Rain = 0
KPD1 190114Z 17013G18KT 36/14 A2986 RMK A01 T03590137  RH  026%=      5-min Rain = 0
KPD1 190115Z 16015KT 36/14 A2986 RMK A01 T03590137  RH  026%=      5-min Rain = 0
KPD1 190116Z 16014G20KT 36/14 A2986 RMK A01 T03590137  RH  026%=      5-min Rain = 0
KPD1 190117Z 17013G18KT 36/14 A2986 RMK A01 T03580136  RH  027%=      5-min Rain = 0
KPD1 190118Z 16015KT 36/14 A2986 RMK A01 T03580136  RH  026%=      5-min Rain = 0
KPD1 190119Z 17012KT 36/14 A2986 RMK A01 T03580137  RH  027%=      5-min Rain = 0
KPD1 190120Z 18014G19KT 36/14 A2986 RMK A01 T03570136  RH  027%=      5-min Rain = 0
KPD1 190121Z 17010KT 36/14 A2986 RMK A01 T03570136  RH  027%=      5-min Rain = 0
KPD1 190122Z 17011G18KT 36/14 A2986 RMK A01 T03570138  RH  027%=      5-min Rain = 0
KPD1 190123Z 16015G21KT 36/14 A2986 RMK A01 T03560138  RH  027%=      5-min Rain = 0
KPD1 190124Z 16017KT 36/14 A2986 RMK A01 T03550138  RH  027%=      5-min Rain = 0
KPD1 190125Z 16020G26KT 36/14 A2986 RMK A01 T03560138  RH  027%=      5-min Rain = 0
KPD1 190126Z 17015KT 36/14 A2986 RMK A01 T03550138  RH  027%=      5-min Rain = 0
KPD1 190127Z 17012G17KT 36/14 A2986 RMK A01 T03550139  RH  027%=      5-min Rain = 0
KPD1 190128Z 17011KT 36/14 A2986 RMK A01 T03550139  RH  027%=      5-min Rain = 0
KPD1 190129Z 16013KT 35/14 A2986 RMK A01 T03540139  RH  028%=      5-min Rain = 0
KPD1 190130Z 17014KT 35/14 A2987 RMK A01 T03530139  RH  028%=      5-min Rain = 0
KPD1 190131Z 16017G23KT 35/14 A2987 RMK A01 T03530139  RH  028%=      5-min Rain = 0
KPD1 190132Z 17016KT 35/14 A2987 RMK A01 T03530139  RH  028%=      5-min Rain = 0
KPD1 190133Z 17012KT 35/14 A2987 RMK A01 T03520138  RH  028%=      5-min Rain = 0
KPD1 190134Z 17011G19KT 35/14 A2987 RMK A01 T03520139  RH  028%=      5-min Rain = 0
KPD1 190135Z 17013G18KT 35/14 A2987 RMK A01 T03510139  RH  028%=      5-min Rain = 0
KPD1 190136Z 17014G19KT 35/14 A2987 RMK A01 T03510140  RH  028%=      5-min Rain = 0
KPD1 190137Z 17011KT 35/14 A2987 RMK A01 T03500139  RH  028%=      5-min Rain = 0
KPD1 190138Z 17014G19KT 35/14 A2987 RMK A01 T03500140  RH  028%=      5-min Rain = 0
KPD1 190139Z 17013G18KT 35/14 A2987 RMK A01 T03490140  RH  029%=      5-min Rain = 0
KPD1 190140Z 17014G20KT 35/14 A2987 RMK A01 T03490141  RH  029%=      5-min Rain = 0
KPD1 190141Z 17015KT 35/14 A2987 RMK A01 T03480140  RH  029%=      5-min Rain = 0
KPD1 190142Z 17015G21KT 35/14 A2987 RMK A01 T03480140  RH  029%=      5-min Rain = 0
KPD1 190143Z 17018KT 35/14 A2987 RMK A01 T03480141  RH  029%=      5-min Rain = 0
KPD1 190144Z 17012KT 35/14 A2987 RMK A01 T03480141  RH  029%=      5-min Rain = 0
KPD1 190145Z 17014KT 35/14 A2987 RMK A01 T03480141  RH  029%=      5-min Rain = 0
KPD1 190146Z 17013G18KT 35/14 A2987 RMK A01 T03470141  RH  029%=      5-min Rain = 0
KPD1 190147Z 18012KT 35/14 A2987 RMK A01 T03470141  RH  029%=      5-min Rain = 0
KPD1 190148Z 16012KT 35/14 A2987 RMK A01 T03460141  RH  029%=      5-min Rain = 0
KPD1 190149Z 17013KT 35/14 A2987 RMK A01 T03460141  RH  029%=      5-min Rain = 0
KPD1 190150Z 17015G20KT 35/14 A2987 RMK A01 T03450141  RH  029%=      5-min Rain = 0
KPD1 190151Z 17012G17KT 35/14 A2987 RMK A01 T03460142  RH  029%=      5-min Rain = 0
KPD1 190152Z 18015G21KT 35/14 A2987 RMK A01 T03450142  RH  029%=      5-min Rain = 0
KPD1 190153Z 18012KT 35/14 A2987 RMK A01 T03460142  RH  030%=      5-min Rain = 0
KPD1 190154Z 17009KT 35/14 A2987 RMK A01 T03450142  RH  030%=      5-min Rain = 0
KPD1 190155Z 16009KT 34/14 A2987 RMK A01 T03440142  RH  030%=      5-min Rain = 0
KPD1 190156Z 17007KT 34/14 A2987 RMK A01 T03440142  RH  030%=      5-min Rain = 0
KPD1 190157Z 18010KT 34/14 A2988 RMK A01 T03420142  RH  030%=      5-min Rain = 0
KPD1 190158Z 18010KT 34/14 A2988 RMK A01 T03420143  RH  030%=      5-min Rain = 0
KPD1 190159Z 17010KT 34/14 A2988 RMK A01 T03410142  RH  030%=      5-min Rain = 0
KPD1 190200Z 16010KT 34/14 A2988 RMK A01 T03410143  RH  030%=      5-min Rain = 0
KPD1 190201Z 17011KT 34/14 A2988 RMK A01 T03400143  RH  031%=      5-min Rain = 0
KPD1 190202Z 17012G18KT 34/14 A2988 RMK A01 T03400144  RH  031%=      5-min Rain = 0
KPD1 190203Z 16009KT 34/14 A2988 RMK A01 T03400144  RH  031%=      5-min Rain = 0
KPD1 190204Z 16009G14KT 34/14 A2988 RMK A01 T03400144  RH  031%=      5-min Rain = 0
KPD1 190205Z 16013KT 34/14 A2988 RMK A01 T03400144  RH  031%=      5-min Rain = 0
KPD1 190206Z 16011KT 34/15 A2988 RMK A01 T03390145  RH  031%=      5-min Rain = 0
KPD1 190207Z 17013KT 34/15 A2988 RMK A01 T03390145  RH  031%=      5-min Rain = 0
KPD1 190208Z 16016KT 34/15 A2988 RMK A01 T03390146  RH  031%=      5-min Rain = 0
KPD1 190209Z 16011KT 34/15 A2988 RMK A01 T03390146  RH  031%=      5-min Rain = 0
KPD1 190210Z 17010KT 34/15 A2988 RMK A01 T03380146  RH  031%=      5-min Rain = 0
KPD1 190211Z 16013KT 34/15 A2988 RMK A01 T03390147  RH  032%=      5-min Rain = 0
KPD1 190212Z 17012KT 34/15 A2988 RMK A01 T03390147  RH  032%=      5-min Rain = 0
KPD1 190213Z 16014KT 34/15 A2988 RMK A01 T03380148  RH  032%=      5-min Rain = 0
KPD1 190214Z 16014KT 34/15 A2988 RMK A01 T03380148  RH  032%=      5-min Rain = 0
KPD1 190215Z 16010G15KT 34/15 A2988 RMK A01 T03380148  RH  032%=      5-min Rain = 0
KPD1 190216Z 16015G20KT 34/15 A2988 RMK A01 T03380149  RH  032%=      5-min Rain = 0
KPD1 190217Z 16012G17KT 34/15 A2988 RMK A01 T03380149  RH  032%=      5-min Rain = 0
KPD1 190218Z 17012KT 34/15 A2988 RMK A01 T03370149  RH  032%=      5-min Rain = 0
KPD1 190219Z 15012KT 34/15 A2988 RMK A01 T03370149  RH  032%=      5-min Rain = 0
KPD1 190220Z 16008KT 34/15 A2988 RMK A01 T03360149  RH  033%=      5-min Rain = 0
KPD1 190221Z 17011KT 34/15 A2988 RMK A01 T03350149  RH  033%=      5-min Rain = 0
KPD1 190222Z 16014G22KT 33/15 A2988 RMK A01 T03340149  RH  033%=      5-min Rain = 0
KPD1 190223Z 17016G21KT 33/15 A2988 RMK A01 T03340150  RH  033%=      5-min Rain = 0
KPD1 190224Z 17013G21KT 33/15 A2988 RMK A01 T03340150  RH  033%=      5-min Rain = 0
KPD1 190225Z 15012G18KT 33/15 A2988 RMK A01 T03340150  RH  033%=      5-min Rain = 0
KPD1 190226Z 16011KT 34/15 A2988 RMK A01 T03350150  RH  033%=      5-min Rain = 0
KPD1 190227Z 16015KT 33/15 A2988 RMK A01 T03340150  RH  033%=      5-min Rain = 0
KPD1 190228Z 15011KT 33/15 A2988 RMK A01 T03340150  RH  033%=      5-min Rain = 0
KPD1 190229Z 16011G16KT 33/15 A2988 RMK A01 T03340150  RH  033%=      5-min Rain = 0
KPD1 190230Z 16011KT 33/15 A2988 RMK A01 T03330150  RH  033%=      5-min Rain = 0
KPD1 190231Z 16011KT 33/15 A2989 RMK A01 T03340150  RH  033%=      5-min Rain = 0
KPD1 190232Z 17011KT 33/15 A2989 RMK A01 T03330150  RH  033%=      5-min Rain = 0
KPD1 190233Z 17010KT 33/15 A2989 RMK A01 T03330150  RH  033%=      5-min Rain = 0
KPD1 190234Z 17011KT 33/15 A2989 RMK A01 T03320150  RH  033%=      5-min Rain = 0
KPD1 190235Z 16008G14KT 33/15 A2989 RMK A01 T03320151  RH  034%=      5-min Rain = 0
KPD1 190236Z 16013G18KT 33/15 A2989 RMK A01 T03310150  RH  034%=      5-min Rain = 0
KPD1 190237Z 16013KT 33/15 A2989 RMK A01 T03310150  RH  034%=      5-min Rain = 0
KPD1 190238Z 16010KT 33/15 A2989 RMK A01 T03300150  RH  034%=      5-min Rain = 0
KPD1 190239Z 17012KT 33/15 A2989 RMK A01 T03310150  RH  034%=      5-min Rain = 0
KPD1 190240Z 17010KT 33/15 A2989 RMK A01 T03310150  RH  034%=      5-min Rain = 0
KPD1 190241Z 17011G16KT 33/15 A2989 RMK A01 T03300150  RH  034%=      5-min Rain = 0
KPD1 190242Z 17010KT 33/15 A2989 RMK A01 T03300149  RH  034%=      5-min Rain = 0
KPD1 190243Z 17011KT 33/15 A2989 RMK A01 T03300150  RH  034%=      5-min Rain = 0
KPD1 190244Z 17013KT 33/15 A2989 RMK A01 T03290149  RH  034%=      5-min Rain = 0
KPD1 190245Z 16011KT 33/15 A2989 RMK A01 T03290149  RH  034%=      5-min Rain = 0
KPD1 190246Z 16010KT 33/15 A2989 RMK A01 T03290149  RH  034%=      5-min Rain = 0
KPD1 190247Z 17012KT 33/15 A2989 RMK A01 T03280149  RH  034%=      5-min Rain = 0
KPD1 190248Z 16011KT 33/15 A2989 RMK A01 T03280149  RH  034%=      5-min Rain = 0
KPD1 190249Z 15012KT 33/15 A2989 RMK A01 T03280149  RH  034%=      5-min Rain = 0
KPD1 190250Z 16012KT 33/15 A2989 RMK A01 T03280149  RH  034%=      5-min Rain = 0
KPD1 190251Z 16014KT 33/15 A2989 RMK A01 T03280149  RH  034%=      5-min Rain = 0
KPD1 190252Z 16011KT 33/15 A2989 RMK A01 T03280149  RH  034%=      5-min Rain = 0
KPD1 190253Z 17011KT 33/15 A2989 RMK A01 T03280149  RH  034%=      5-min Rain = 0
KPD1 190254Z 18011KT 33/15 A2989 RMK A01 T03270149  RH  034%=      5-min Rain = 0
KPD1 190255Z 16012KT 33/15 A2989 RMK A01 T03270148  RH  034%=      5-min Rain = 0
KPD1 190256Z 17011KT 33/15 A2989 RMK A01 T03260148  RH  034%=      5-min Rain = 0
KPD1 190257Z 17009KT 33/15 A2989 RMK A01 T03270148  RH  034%=      5-min Rain = 0
KPD1 190258Z 17013KT 33/15 A2989 RMK A01 T03260148  RH  034%=      5-min Rain = 0
KPD1 190259Z 16010KT 33/15 A2989 RMK A01 T03260148  RH  034%=      5-min Rain = 0
KPD1 190300Z 18010KT 33/15 A2989 RMK A01 T03260148  RH  034%=      5-min Rain = 0
KPD1 190301Z 17009KT 33/15 A2989 RMK A01 T03250147  RH  034%=      5-min Rain = 0
KPD1 190302Z 17010KT 33/15 A2989 RMK A01 T03250147  RH  034%=      5-min Rain = 0
KPD1 190303Z 16011KT 33/15 A299 RMK A01 T03250148  RH  034%=      5-min Rain = 0
KPD1 190304Z 16012KT 32/15 A2989 RMK A01 T03240147  RH  034%=      5-min Rain = 0
KPD1 190305Z 17009KT 32/15 A2989 RMK A01 T03240147  RH  034%=      5-min Rain = 0
KPD1 190306Z 17008KT 32/15 A299 RMK A01 T03240148  RH  034%=      5-min Rain = 0
KPD1 190307Z 15011KT 32/15 A299 RMK A01 T03240147  RH  034%=      5-min Rain = 0
KPD1 190308Z 17012KT 32/15 A299 RMK A01 T03230147  RH  034%=      5-min Rain = 0
KPD1 190309Z 17012KT 32/15 A299 RMK A01 T03230147  RH  034%=      5-min Rain = 0
KPD1 190310Z 17013KT 32/15 A299 RMK A01 T03230147  RH  034%=      5-min Rain = 0
KPD1 190311Z 17013KT 32/15 A299 RMK A01 T03230146  RH  034%=      5-min Rain = 0
KPD1 190312Z 16009KT 32/15 A299 RMK A01 T03240146  RH  034%=      5-min Rain = 0
KPD1 190313Z 17009KT 32/15 A299 RMK A01 T03240147  RH  034%=      5-min Rain = 0
KPD1 190314Z 16009KT 32/15 A299 RMK A01 T03240147  RH  034%=      5-min Rain = 0
KPD1 190315Z 17009KT 32/15 A299 RMK A01 T03230147  RH  034%=      5-min Rain = 0
KPD1 190316Z 17010KT 32/15 A299 RMK A01 T03220146  RH  035%=      5-min Rain = 0
KPD1 190317Z 15011G19KT 32/15 A299 RMK A01 T03220147  RH  035%=      5-min Rain = 0
KPD1 190318Z 17008KT 32/15 A299 RMK A01 T03220146  RH  035%=      5-min Rain = 0
KPD1 190319Z 16010KT 32/15 A299 RMK A01 T03220146  RH  035%=      5-min Rain = 0
KPD1 190320Z 17008G13KT 32/15 A299 RMK A01 T03220146  RH  035%=      5-min Rain = 0
KPD1 190321Z 16012G18KT 32/15 A299 RMK A01 T03220147  RH  035%=      5-min Rain = 0
KPD1 190322Z 16011KT 32/15 A299 RMK A01 T03210146  RH  035%=      5-min Rain = 0
KPD1 190323Z 16008KT 32/15 A299 RMK A01 T03210145  RH  035%=      5-min Rain = 0
KPD1 190324Z 16007G12KT 32/15 A299 RMK A01 T03220146  RH  035%=      5-min Rain = 0
KPD1 190325Z 17009KT 32/15 A299 RMK A01 T03210146  RH  035%=      5-min Rain = 0
KPD1 190326Z 16009KT 32/15 A299 RMK A01 T03200146  RH  035%=      5-min Rain = 0
KPD1 190327Z 16011KT 32/15 A299 RMK A01 T03200146  RH  035%=      5-min Rain = 0
KPD1 190328Z 15010KT 32/15 A2991 RMK A01 T03200146  RH  035%=      5-min Rain = 0
KPD1 190329Z 15011KT 32/15 A2991 RMK A01 T03200146  RH  035%=      5-min Rain = 0
KPD1 190330Z 16010KT 32/15 A2991 RMK A01 T03190145  RH  035%=      5-min Rain = 0
KPD1 190331Z 15010KT 32/15 A2991 RMK A01 T03200145  RH  035%=      5-min Rain = 0
KPD1 190332Z 15007KT 32/15 A2991 RMK A01 T03200146  RH  035%=      5-min Rain = 0
KPD1 190333Z 15008KT 32/15 A2991 RMK A01 T03200146  RH  035%=      5-min Rain = 0
KPD1 190334Z 16008KT 32/15 A2991 RMK A01 T03190145  RH  035%=      5-min Rain = 0
KPD1 190335Z 16008KT 32/15 A2991 RMK A01 T03190145  RH  035%=      5-min Rain = 0
KPD1 190336Z 16010KT 32/15 A2991 RMK A01 T03190145  RH  035%=      5-min Rain = 0
KPD1 190337Z 16011KT 32/15 A2991 RMK A01 T03190145  RH  035%=      5-min Rain = 0
KPD1 190338Z 17009KT 32/15 A2991 RMK A01 T03180145  RH  035%=      5-min Rain = 0
KPD1 190339Z 17009KT 32/15 A2991 RMK A01 T03180145  RH  035%=      5-min Rain = 0
KPD1 190340Z 16009KT 32/15 A2991 RMK A01 T03170145  RH  035%=      5-min Rain = 0
KPD1 190341Z 17012G17KT 32/15 A2991 RMK A01 T03180145  RH  035%=      5-min Rain = 0
KPD1 190342Z 17010KT 32/14 A2991 RMK A01 T03170144  RH  035%=      5-min Rain = 0
KPD1 190343Z 16010KT 32/14 A2991 RMK A01 T03170144  RH  035%=      5-min Rain = 0
KPD1 190344Z 16010G15KT 32/14 A2991 RMK A01 T03170143  RH  035%=      5-min Rain = 0
KPD1 190345Z 17012G17KT 32/14 A2991 RMK A01 T03180144  RH  035%=      5-min Rain = 0
KPD1 190346Z 17009KT 32/14 A2991 RMK A01 T03180144  RH  035%=      5-min Rain = 0
KPD1 190347Z 16007KT 32/14 A2991 RMK A01 T03180144  RH  035%=      5-min Rain = 0
KPD1 190348Z 16007KT 32/14 A2991 RMK A01 T03170144  RH  035%=      5-min Rain = 0
KPD1 190349Z 16007KT 32/14 A2991 RMK A01 T03170144  RH  035%=      5-min Rain = 0
KPD1 190350Z 16010KT 32/14 A2991 RMK A01 T03160144  RH  035%=      5-min Rain = 0
KPD1 190351Z 17009KT 32/14 A2991 RMK A01 T03160144  RH  035%=      5-min Rain = 0
KPD1 190352Z 17011KT 32/14 A2992 RMK A01 T03160144  RH  035%=      5-min Rain = 0
KPD1 190353Z 17011KT 32/14 A2991 RMK A01 T03160144  RH  035%=      5-min Rain = 0
KPD1 190354Z 17007KT 32/14 A2991 RMK A01 T03160144  RH  035%=      5-min Rain = 0
KPD1 190355Z 16009G15KT 32/14 A2992 RMK A01 T03150144  RH  035%=      5-min Rain = 0
KPD1 190356Z 16010G15KT 32/14 A2992 RMK A01 T03160144  RH  035%=      5-min Rain = 0
KPD1 190357Z 17009KT 32/14 A2992 RMK A01 T03160144  RH  035%=      5-min Rain = 0
KPD1 190358Z 16010G17KT 32/14 A2991 RMK A01 T03150144  RH  035%=      5-min Rain = 0
KPD1 190359Z 17013KT 32/14 A2992 RMK A01 T03150143  RH  035%=      5-min Rain = 0
KPD1 190400Z 16008KT 32/14 A2992 RMK A01 T03150143  RH  035%=      5-min Rain = 0
KPD1 190401Z 16007KT 32/14 A2992 RMK A01 T03150144  RH  035%=      5-min Rain = 0
KPD1 190402Z 17008KT 31/14 A2992 RMK A01 T03140143  RH  035%=      5-min Rain = 0
KPD1 190403Z 17010KT 31/14 A2992 RMK A01 T03140143  RH  035%=      5-min Rain = 0
KPD1 190404Z 16011KT 31/14 A2992 RMK A01 T03140143  RH  035%=      5-min Rain = 0
KPD1 190405Z 18011G16KT 31/14 A2992 RMK A01 T03140144  RH  036%=      5-min Rain = 0
KPD1 190406Z 17010KT 31/14 A2992 RMK A01 T03140143  RH  036%=      5-min Rain = 0
KPD1 190407Z 15010KT 31/14 A2992 RMK A01 T03130143  RH  036%=      5-min Rain = 0
KPD1 190408Z 16009KT 31/14 A2992 RMK A01 T03130143  RH  036%=      5-min Rain = 0
KPD1 190409Z 17008KT 31/14 A2992 RMK A01 T03130143  RH  036%=      5-min Rain = 0
KPD1 190410Z 18007KT 31/14 A2992 RMK A01 T03130143  RH  036%=      5-min Rain = 0
KPD1 190411Z 16006KT 31/14 A2992 RMK A01 T03130143  RH  036%=      5-min Rain = 0
KPD1 190412Z 16006KT 31/14 A2992 RMK A01 T03120143  RH  036%=      5-min Rain = 0
KPD1 190413Z 16009KT 31/14 A2992 RMK A01 T03110143  RH  036%=      5-min Rain = 0
KPD1 190414Z 16009KT 31/14 A2992 RMK A01 T03110143  RH  036%=      5-min Rain = 0
KPD1 190415Z 16008KT 31/14 A2992 RMK A01 T03110143  RH  036%=      5-min Rain = 0
KPD1 190416Z 17010KT 31/14 A2992 RMK A01 T03110143  RH  036%=      5-min Rain = 0
KPD1 190417Z 16011KT 31/14 A2992 RMK A01 T03110142  RH  036%=      5-min Rain = 0
KPD1 190418Z 16011KT 31/14 A2992 RMK A01 T03120143  RH  036%=      5-min Rain = 0
KPD1 190419Z 16011KT 31/14 A2992 RMK A01 T03110143  RH  036%=      5-min Rain = 0
KPD1 190420Z 17009KT 31/14 A2992 RMK A01 T03110142  RH  036%=      5-min Rain = 0
KPD1 190421Z 17008KT 31/14 A2992 RMK A01 T03120143  RH  036%=      5-min Rain = 0
KPD1 190422Z 17008KT 31/14 A2992 RMK A01 T03110143  RH  036%=      5-min Rain = 0
KPD1 190423Z 17007KT 31/14 A2992 RMK A01 T03100143  RH  036%=      5-min Rain = 0
KPD1 190424Z 17008KT 31/14 A2992 RMK A01 T03100143  RH  036%=      5-min Rain = 0
KPD1 190425Z 17009KT 31/14 A2992 RMK A01 T03090143  RH  036%=      5-min Rain = 0
KPD1 190426Z 17008KT 31/14 A2992 RMK A01 T03090142  RH  036%=      5-min Rain = 0
KPD1 190427Z 17009KT 31/14 A2992 RMK A01 T03090143  RH  036%=      5-min Rain = 0
KPD1 190428Z 17008KT 31/14 A2993 RMK A01 T03090143  RH  036%=      5-min Rain = 0
KPD1 190429Z 15008KT 31/14 A2992 RMK A01 T03090143  RH  036%=      5-min Rain = 0
KPD1 190430Z 16008KT 31/14 A2992 RMK A01 T03080143  RH  037%=      5-min Rain = 0
KPD1 190431Z 15010KT 31/14 A2993 RMK A01 T03070142  RH  037%=      5-min Rain = 0
KPD1 190432Z 15010KT 31/14 A2993 RMK A01 T03080143  RH  037%=      5-min Rain = 0
KPD1 190433Z 17010KT 31/14 A2993 RMK A01 T03080142  RH  036%=      5-min Rain = 0
KPD1 190434Z 16009KT 31/14 A2993 RMK A01 T03080142  RH  036%=      5-min Rain = 0
KPD1 190435Z 16010KT 31/14 A2993 RMK A01 T03080142  RH  036%=      5-min Rain = 0
KPD1 190436Z 16009KT 31/14 A2993 RMK A01 T03080142  RH  036%=      5-min Rain = 0
KPD1 190437Z 16009G16KT 31/14 A2993 RMK A01 T03080142  RH  036%=      5-min Rain = 0
KPD1 190438Z 16010G16KT 31/14 A2993 RMK A01 T03080142  RH  037%=      5-min Rain = 0
KPD1 190439Z 17008KT 31/14 A2993 RMK A01 T03070142  RH  037%=      5-min Rain = 0
KPD1 190440Z 17006KT 31/14 A2993 RMK A01 T03070142  RH  037%=      5-min Rain = 0
KPD1 190441Z 17007KT 31/14 A2993 RMK A01 T03070142  RH  037%=      5-min Rain = 0
KPD1 190442Z 17006KT 31/14 A2993 RMK A01 T03060143  RH  037%=      5-min Rain = 0
KPD1 190443Z 16007KT 31/14 A2993 RMK A01 T03060143  RH  037%=      5-min Rain = 0
KPD1 190444Z 16008KT 30/14 A2993 RMK A01 T03040142  RH  037%=      5-min Rain = 0
KPD1 190445Z 16010KT 30/14 A2993 RMK A01 T03040142  RH  037%=      5-min Rain = 0
KPD1 190446Z 15011KT 30/14 A2993 RMK A01 T03040142  RH  037%=      5-min Rain = 0
KPD1 190447Z 16008KT 31/14 A2993 RMK A01 T03050142  RH  037%=      5-min Rain = 0
KPD1 190448Z 15008KT 31/14 A2993 RMK A01 T03050142  RH  037%=      5-min Rain = 0
KPD1 190449Z 16011KT 31/14 A2993 RMK A01 T03060142  RH  037%=      5-min Rain = 0
KPD1 190450Z 15008KT 31/14 A2993 RMK A01 T03060142  RH  037%=      5-min Rain = 0
KPD1 190451Z 17009KT 31/14 A2993 RMK A01 T03050142  RH  037%=      5-min Rain = 0
KPD1 190452Z 16009KT 31/14 A2993 RMK A01 T03050142  RH  037%=      5-min Rain = 0
KPD1 190453Z 15008KT 30/14 A2993 RMK A01 T03040142  RH  037%=      5-min Rain = 0
KPD1 190454Z 16008KT 30/14 A2993 RMK A01 T03040142  RH  037%=      5-min Rain = 0
KPD1 190455Z 16009KT 30/14 A2993 RMK A01 T03030142  RH  037%=      5-min Rain = 0
KPD1 190456Z 17008KT 30/14 A2993 RMK A01 T03040142  RH  037%=      5-min Rain = 0
KPD1 190457Z 15009KT 30/14 A2993 RMK A01 T03040142  RH  037%=      5-min Rain = 0
KPD1 190458Z 14008KT 30/14 A2993 RMK A01 T03030142  RH  037%=      5-min Rain = 0
KPD1 190459Z 17008KT 30/14 A2993 RMK A01 T03030142  RH  037%=      5-min Rain = 0

Page generated in 0.1207 seconds.